<?xml version="1.0" encoding="UTF-8"?>
<gpx xmlns="http://www.topografix.com/GPX/1/1" xmlns:xsi="http://www.w3.org/2001/XMLSchema-instance" version="1.1" xsi:schemaLocation="http://www.topografix.com/GPX/1/1 http://www.topografix.com/GPX/1/1/gpx.xsd">
  <metadata>
    <name>Swanage Triathlon 2025 - Aquabike Standard</name>
  </metadata>
  <trk>
    <name>Swanage Triathlon 2025 - Aquabike Standard</name>
    <trkseg>
      <trkpt lat="50.612662" lon="-1.959527">
        <ele>6.295457</ele>
        <time>2024-06-30T07:08:00.000Z</time>
      </trkpt>
      <trkpt lat="50.612664" lon="-1.959516">
        <ele>6.295453</ele>
        <time>2024-06-30T07:08:00.000Z</time>
      </trkpt>
      <trkpt lat="50.612653" lon="-1.959858">
        <ele>6.295462</ele>
        <time>2024-06-30T07:08:02.000Z</time>
      </trkpt>
      <trkpt lat="50.612507" lon="-1.962248">
        <ele>5.085745</ele>
        <time>2024-06-30T07:08:19.000Z</time>
      </trkpt>
      <trkpt lat="50.612087" lon="-1.962358">
        <ele>4.461666</ele>
        <time>2024-06-30T07:08:24.000Z</time>
      </trkpt>
      <trkpt lat="50.611737" lon="-1.962441">
        <ele>3.962257</ele>
        <time>2024-06-30T07:08:28.000Z</time>
      </trkpt>
      <trkpt lat="50.611646" lon="-1.962482">
        <ele>3.835678</ele>
        <time>2024-06-30T07:08:29.000Z</time>
      </trkpt>
      <trkpt lat="50.611655" lon="-1.96252">
        <ele>3.787384</ele>
        <time>2024-06-30T07:08:29.000Z</time>
      </trkpt>
      <trkpt lat="50.61188" lon="-1.963567">
        <ele>3.453636</ele>
        <time>2024-06-30T07:08:37.000Z</time>
      </trkpt>
      <trkpt lat="50.612052" lon="-1.96423">
        <ele>3.280886</ele>
        <time>2024-06-30T07:08:42.000Z</time>
      </trkpt>
      <trkpt lat="50.61253" lon="-1.965925">
        <ele>3.311731</ele>
        <time>2024-06-30T07:08:55.000Z</time>
      </trkpt>
      <trkpt lat="50.612746" lon="-1.96686">
        <ele>3.725797</ele>
        <time>2024-06-30T07:09:02.000Z</time>
      </trkpt>
      <trkpt lat="50.612792" lon="-1.967062">
        <ele>3.819694</ele>
        <time>2024-06-30T07:09:04.000Z</time>
      </trkpt>
      <trkpt lat="50.612848" lon="-1.967443">
        <ele>3.982839</ele>
        <time>2024-06-30T07:09:07.000Z</time>
      </trkpt>
      <trkpt lat="50.613055" lon="-1.968905">
        <ele>4.664632</ele>
        <time>2024-06-30T07:09:18.000Z</time>
      </trkpt>
      <trkpt lat="50.613118" lon="-1.96934">
        <ele>4.869643</ele>
        <time>2024-06-30T07:09:21.000Z</time>
      </trkpt>
      <trkpt lat="50.613264" lon="-1.970483">
        <ele>5.423354</ele>
        <time>2024-06-30T07:09:29.000Z</time>
      </trkpt>
      <trkpt lat="50.613273" lon="-1.970912">
        <ele>5.706693</ele>
        <time>2024-06-30T07:09:32.000Z</time>
      </trkpt>
      <trkpt lat="50.613222" lon="-1.971296">
        <ele>6.060321</ele>
        <time>2024-06-30T07:09:35.000Z</time>
      </trkpt>
      <trkpt lat="50.613103" lon="-1.971683">
        <ele>6.446392</ele>
        <time>2024-06-30T07:09:38.000Z</time>
      </trkpt>
      <trkpt lat="50.61298" lon="-1.971986">
        <ele>6.768117</ele>
        <time>2024-06-30T07:09:41.000Z</time>
      </trkpt>
      <trkpt lat="50.612725" lon="-1.972464">
        <ele>7.333402</ele>
        <time>2024-06-30T07:09:45.000Z</time>
      </trkpt>
      <trkpt lat="50.612619" lon="-1.972584">
        <ele>7.512146</ele>
        <time>2024-06-30T07:09:46.000Z</time>
      </trkpt>
      <trkpt lat="50.612328" lon="-1.97288">
        <ele>7.985176</ele>
        <time>2024-06-30T07:09:50.000Z</time>
      </trkpt>
      <trkpt lat="50.612113" lon="-1.973239">
        <ele>8.418974</ele>
        <time>2024-06-30T07:09:53.000Z</time>
      </trkpt>
      <trkpt lat="50.612056" lon="-1.973374">
        <ele>8.574725</ele>
        <time>2024-06-30T07:09:54.000Z</time>
      </trkpt>
      <trkpt lat="50.611946" lon="-1.973523">
        <ele>8.770433</ele>
        <time>2024-06-30T07:09:56.000Z</time>
      </trkpt>
      <trkpt lat="50.611861" lon="-1.973702">
        <ele>8.959585</ele>
        <time>2024-06-30T07:09:58.000Z</time>
      </trkpt>
      <trkpt lat="50.611656" lon="-1.974894">
        <ele>10.053293</ele>
        <time>2024-06-30T07:10:07.000Z</time>
      </trkpt>
      <trkpt lat="50.611638" lon="-1.974957">
        <ele>10.109214</ele>
        <time>2024-06-30T07:10:07.000Z</time>
      </trkpt>
      <trkpt lat="50.611494" lon="-1.975695">
        <ele>11.094305</ele>
        <time>2024-06-30T07:10:12.000Z</time>
      </trkpt>
      <trkpt lat="50.61139" lon="-1.976104">
        <ele>11.961679</ele>
        <time>2024-06-30T07:10:15.000Z</time>
      </trkpt>
      <trkpt lat="50.611336" lon="-1.976252">
        <ele>12.285589</ele>
        <time>2024-06-30T07:10:16.000Z</time>
      </trkpt>
      <trkpt lat="50.611076" lon="-1.976615">
        <ele>13.377527</ele>
        <time>2024-06-30T07:10:20.000Z</time>
      </trkpt>
      <trkpt lat="50.610943" lon="-1.976805">
        <ele>13.900715</ele>
        <time>2024-06-30T07:10:22.000Z</time>
      </trkpt>
      <trkpt lat="50.61091" lon="-1.976841">
        <ele>14.05703</ele>
        <time>2024-06-30T07:10:22.000Z</time>
      </trkpt>
      <trkpt lat="50.610835" lon="-1.976863">
        <ele>14.273395</ele>
        <time>2024-06-30T07:10:23.000Z</time>
      </trkpt>
      <trkpt lat="50.610699" lon="-1.977063">
        <ele>14.839402</ele>
        <time>2024-06-30T07:10:25.000Z</time>
      </trkpt>
      <trkpt lat="50.610544" lon="-1.977271">
        <ele>15.461966</ele>
        <time>2024-06-30T07:10:27.000Z</time>
      </trkpt>
      <trkpt lat="50.610479" lon="-1.977521">
        <ele>15.997324</ele>
        <time>2024-06-30T07:10:29.000Z</time>
      </trkpt>
      <trkpt lat="50.610462" lon="-1.977574">
        <ele>16.122696</ele>
        <time>2024-06-30T07:10:29.000Z</time>
      </trkpt>
      <trkpt lat="50.610375" lon="-1.9781">
        <ele>17.393435</ele>
        <time>2024-06-30T07:10:33.000Z</time>
      </trkpt>
      <trkpt lat="50.610166" lon="-1.980253">
        <ele>22.546016</ele>
        <time>2024-06-30T07:10:48.000Z</time>
      </trkpt>
      <trkpt lat="50.610136" lon="-1.980557">
        <ele>23.167361</ele>
        <time>2024-06-30T07:10:50.000Z</time>
      </trkpt>
      <trkpt lat="50.610056" lon="-1.981415">
        <ele>24.828425</ele>
        <time>2024-06-30T07:10:56.000Z</time>
      </trkpt>
      <trkpt lat="50.609887" lon="-1.982338">
        <ele>26.651702</ele>
        <time>2024-06-30T07:11:03.000Z</time>
      </trkpt>
      <trkpt lat="50.609665" lon="-1.98321">
        <ele>28.380945</ele>
        <time>2024-06-30T07:11:10.000Z</time>
      </trkpt>
      <trkpt lat="50.609591" lon="-1.983506">
        <ele>28.906138</ele>
        <time>2024-06-30T07:11:12.000Z</time>
      </trkpt>
      <trkpt lat="50.609369" lon="-1.984186">
        <ele>30.103463</ele>
        <time>2024-06-30T07:11:17.000Z</time>
      </trkpt>
      <trkpt lat="50.609104" lon="-1.984995">
        <ele>31.588264</ele>
        <time>2024-06-30T07:11:23.000Z</time>
      </trkpt>
      <trkpt lat="50.609027" lon="-1.985437">
        <ele>32.318869</ele>
        <time>2024-06-30T07:11:26.000Z</time>
      </trkpt>
      <trkpt lat="50.608993" lon="-1.985903">
        <ele>32.962972</ele>
        <time>2024-06-30T07:11:29.000Z</time>
      </trkpt>
      <trkpt lat="50.608979" lon="-1.986938">
        <ele>34.068018</ele>
        <time>2024-06-30T07:11:36.000Z</time>
      </trkpt>
      <trkpt lat="50.608977" lon="-1.987741">
        <ele>34.933176</ele>
        <time>2024-06-30T07:11:42.000Z</time>
      </trkpt>
      <trkpt lat="50.60898" lon="-1.989251">
        <ele>36.82669</ele>
        <time>2024-06-30T07:11:53.000Z</time>
      </trkpt>
      <trkpt lat="50.609015" lon="-1.989691">
        <ele>37.469253</ele>
        <time>2024-06-30T07:11:56.000Z</time>
      </trkpt>
      <trkpt lat="50.609127" lon="-1.990142">
        <ele>38.167068</ele>
        <time>2024-06-30T07:11:59.000Z</time>
      </trkpt>
      <trkpt lat="50.609279" lon="-1.990487">
        <ele>38.740678</ele>
        <time>2024-06-30T07:12:02.000Z</time>
      </trkpt>
      <trkpt lat="50.609394" lon="-1.990692">
        <ele>39.14199</ele>
        <time>2024-06-30T07:12:04.000Z</time>
      </trkpt>
      <trkpt lat="50.609413" lon="-1.990831">
        <ele>39.340625</ele>
        <time>2024-06-30T07:12:05.000Z</time>
      </trkpt>
      <trkpt lat="50.609488" lon="-1.991032">
        <ele>39.700289</ele>
        <time>2024-06-30T07:12:07.000Z</time>
      </trkpt>
      <trkpt lat="50.60958" lon="-1.991373">
        <ele>40.860905</ele>
        <time>2024-06-30T07:12:10.000Z</time>
      </trkpt>
      <trkpt lat="50.609652" lon="-1.991807">
        <ele>42.686888</ele>
        <time>2024-06-30T07:12:13.000Z</time>
      </trkpt>
      <trkpt lat="50.609684" lon="-1.991985">
        <ele>43.382035</ele>
        <time>2024-06-30T07:12:14.000Z</time>
      </trkpt>
      <trkpt lat="50.609738" lon="-1.992254">
        <ele>44.497767</ele>
        <time>2024-06-30T07:12:16.000Z</time>
      </trkpt>
      <trkpt lat="50.609821" lon="-1.992759">
        <ele>46.534044</ele>
        <time>2024-06-30T07:12:20.000Z</time>
      </trkpt>
      <trkpt lat="50.609844" lon="-1.992848">
        <ele>46.926885</ele>
        <time>2024-06-30T07:12:21.000Z</time>
      </trkpt>
      <trkpt lat="50.609932" lon="-1.993428">
        <ele>49.332195</ele>
        <time>2024-06-30T07:12:25.000Z</time>
      </trkpt>
      <trkpt lat="50.60997" lon="-1.993661">
        <ele>50.237084</ele>
        <time>2024-06-30T07:12:27.000Z</time>
      </trkpt>
      <trkpt lat="50.609969" lon="-1.993706">
        <ele>50.385641</ele>
        <time>2024-06-30T07:12:27.000Z</time>
      </trkpt>
      <trkpt lat="50.61001" lon="-1.994346">
        <ele>52.919909</ele>
        <time>2024-06-30T07:12:32.000Z</time>
      </trkpt>
      <trkpt lat="50.610149" lon="-1.995213">
        <ele>56.315567</ele>
        <time>2024-06-30T07:12:38.000Z</time>
      </trkpt>
      <trkpt lat="50.610228" lon="-1.995938">
        <ele>59.105947</ele>
        <time>2024-06-30T07:12:43.000Z</time>
      </trkpt>
      <trkpt lat="50.610241" lon="-1.995959">
        <ele>59.21791</ele>
        <time>2024-06-30T07:12:43.000Z</time>
      </trkpt>
      <trkpt lat="50.610268" lon="-1.996224">
        <ele>60.256951</ele>
        <time>2024-06-30T07:12:45.000Z</time>
      </trkpt>
      <trkpt lat="50.610194" lon="-1.996901">
        <ele>62.057611</ele>
        <time>2024-06-30T07:12:50.000Z</time>
      </trkpt>
      <trkpt lat="50.610166" lon="-1.997117">
        <ele>62.211583</ele>
        <time>2024-06-30T07:12:52.000Z</time>
      </trkpt>
      <trkpt lat="50.610158" lon="-1.997146">
        <ele>62.24115</ele>
        <time>2024-06-30T07:12:52.000Z</time>
      </trkpt>
      <trkpt lat="50.609907" lon="-1.998064">
        <ele>62.957508</ele>
        <time>2024-06-30T07:12:59.000Z</time>
      </trkpt>
      <trkpt lat="50.609682" lon="-1.998894">
        <ele>63.596905</ele>
        <time>2024-06-30T07:13:05.000Z</time>
      </trkpt>
      <trkpt lat="50.609648" lon="-1.999266">
        <ele>63.871591</ele>
        <time>2024-06-30T07:13:08.000Z</time>
      </trkpt>
      <trkpt lat="50.609662" lon="-1.999467">
        <ele>64.376728</ele>
        <time>2024-06-30T07:13:09.000Z</time>
      </trkpt>
      <trkpt lat="50.609799" lon="-2.000279">
        <ele>66.911309</ele>
        <time>2024-06-30T07:13:15.000Z</time>
      </trkpt>
      <trkpt lat="50.609837" lon="-2.000801">
        <ele>68.440163</ele>
        <time>2024-06-30T07:13:19.000Z</time>
      </trkpt>
      <trkpt lat="50.609737" lon="-2.001394">
        <ele>70.31656</ele>
        <time>2024-06-30T07:13:23.000Z</time>
      </trkpt>
      <trkpt lat="50.609598" lon="-2.00204">
        <ele>72.345324</ele>
        <time>2024-06-30T07:13:28.000Z</time>
      </trkpt>
      <trkpt lat="50.609592" lon="-2.002374">
        <ele>73.505634</ele>
        <time>2024-06-30T07:13:30.000Z</time>
      </trkpt>
      <trkpt lat="50.609466" lon="-2.003478">
        <ele>77.424185</ele>
        <time>2024-06-30T07:13:38.000Z</time>
      </trkpt>
      <trkpt lat="50.609292" lon="-2.004706">
        <ele>81.886149</ele>
        <time>2024-06-30T07:13:47.000Z</time>
      </trkpt>
      <trkpt lat="50.609229" lon="-2.005016">
        <ele>83.078046</ele>
        <time>2024-06-30T07:13:49.000Z</time>
      </trkpt>
      <trkpt lat="50.609201" lon="-2.005197">
        <ele>83.711133</ele>
        <time>2024-06-30T07:13:50.000Z</time>
      </trkpt>
      <trkpt lat="50.609141" lon="-2.00532">
        <ele>84.278152</ele>
        <time>2024-06-30T07:13:51.000Z</time>
      </trkpt>
      <trkpt lat="50.608967" lon="-2.005867">
        <ele>86.526547</ele>
        <time>2024-06-30T07:13:55.000Z</time>
      </trkpt>
      <trkpt lat="50.608875" lon="-2.006286">
        <ele>88.144814</ele>
        <time>2024-06-30T07:13:58.000Z</time>
      </trkpt>
      <trkpt lat="50.608809" lon="-2.00663">
        <ele>89.471737</ele>
        <time>2024-06-30T07:14:01.000Z</time>
      </trkpt>
      <trkpt lat="50.608745" lon="-2.007164">
        <ele>91.458383</ele>
        <time>2024-06-30T07:14:05.000Z</time>
      </trkpt>
      <trkpt lat="50.608741" lon="-2.007425">
        <ele>92.427872</ele>
        <time>2024-06-30T07:14:07.000Z</time>
      </trkpt>
      <trkpt lat="50.608669" lon="-2.008279">
        <ele>95.938223</ele>
        <time>2024-06-30T07:14:13.000Z</time>
      </trkpt>
      <trkpt lat="50.608653" lon="-2.008518">
        <ele>96.955102</ele>
        <time>2024-06-30T07:14:15.000Z</time>
      </trkpt>
      <trkpt lat="50.608622" lon="-2.009454">
        <ele>100.945723</ele>
        <time>2024-06-30T07:14:22.000Z</time>
      </trkpt>
      <trkpt lat="50.608604" lon="-2.010264">
        <ele>104.325604</ele>
        <time>2024-06-30T07:14:28.000Z</time>
      </trkpt>
      <trkpt lat="50.608564" lon="-2.01139">
        <ele>107.895286</ele>
        <time>2024-06-30T07:14:36.000Z</time>
      </trkpt>
      <trkpt lat="50.608539" lon="-2.011652">
        <ele>108.711904</ele>
        <time>2024-06-30T07:14:38.000Z</time>
      </trkpt>
      <trkpt lat="50.608531" lon="-2.012102">
        <ele>110.12215</ele>
        <time>2024-06-30T07:14:41.000Z</time>
      </trkpt>
      <trkpt lat="50.608548" lon="-2.01299">
        <ele>112.863295</ele>
        <time>2024-06-30T07:14:47.000Z</time>
      </trkpt>
      <trkpt lat="50.608547" lon="-2.013021">
        <ele>113.003649</ele>
        <time>2024-06-30T07:14:47.000Z</time>
      </trkpt>
      <trkpt lat="50.608503" lon="-2.013547">
        <ele>114.539107</ele>
        <time>2024-06-30T07:14:51.000Z</time>
      </trkpt>
      <trkpt lat="50.608459" lon="-2.013822">
        <ele>115.351552</ele>
        <time>2024-06-30T07:14:53.000Z</time>
      </trkpt>
      <trkpt lat="50.608395" lon="-2.014115">
        <ele>116.206003</ele>
        <time>2024-06-30T07:14:55.000Z</time>
      </trkpt>
      <trkpt lat="50.608071" lon="-2.015179">
        <ele>119.610904</ele>
        <time>2024-06-30T07:15:03.000Z</time>
      </trkpt>
      <trkpt lat="50.607956" lon="-2.015891">
        <ele>121.674809</ele>
        <time>2024-06-30T07:15:08.000Z</time>
      </trkpt>
      <trkpt lat="50.607779" lon="-2.017114">
        <ele>124.960491</ele>
        <time>2024-06-30T07:15:17.000Z</time>
      </trkpt>
      <trkpt lat="50.607759" lon="-2.017332">
        <ele>125.575228</ele>
        <time>2024-06-30T07:15:19.000Z</time>
      </trkpt>
      <trkpt lat="50.607729" lon="-2.018117">
        <ele>127.607346</ele>
        <time>2024-06-30T07:15:25.000Z</time>
      </trkpt>
      <trkpt lat="50.60775" lon="-2.018398">
        <ele>128.372271</ele>
        <time>2024-06-30T07:15:27.000Z</time>
      </trkpt>
      <trkpt lat="50.607912" lon="-2.019618">
        <ele>131.096159</ele>
        <time>2024-06-30T07:15:36.000Z</time>
      </trkpt>
      <trkpt lat="50.608274" lon="-2.021553">
        <ele>134.977875</ele>
        <time>2024-06-30T07:15:50.000Z</time>
      </trkpt>
      <trkpt lat="50.608435" lon="-2.022709">
        <ele>135.447185</ele>
        <time>2024-06-30T07:15:58.000Z</time>
      </trkpt>
      <trkpt lat="50.608766" lon="-2.023801">
        <ele>135.928437</ele>
        <time>2024-06-30T07:16:07.000Z</time>
      </trkpt>
      <trkpt lat="50.608971" lon="-2.024863">
        <ele>135.717028</ele>
        <time>2024-06-30T07:16:15.000Z</time>
      </trkpt>
      <trkpt lat="50.609349" lon="-2.025861">
        <ele>135.303704</ele>
        <time>2024-06-30T07:16:23.000Z</time>
      </trkpt>
      <trkpt lat="50.609383" lon="-2.025976">
        <ele>135.256476</ele>
        <time>2024-06-30T07:16:24.000Z</time>
      </trkpt>
      <trkpt lat="50.609457" lon="-2.026242">
        <ele>135.15652</ele>
        <time>2024-06-30T07:16:26.000Z</time>
      </trkpt>
      <trkpt lat="50.609634" lon="-2.026918">
        <ele>134.816879</ele>
        <time>2024-06-30T07:16:31.000Z</time>
      </trkpt>
      <trkpt lat="50.609775" lon="-2.027488">
        <ele>134.466127</ele>
        <time>2024-06-30T07:16:35.000Z</time>
      </trkpt>
      <trkpt lat="50.609794" lon="-2.027573">
        <ele>134.415397</ele>
        <time>2024-06-30T07:16:36.000Z</time>
      </trkpt>
      <trkpt lat="50.60992" lon="-2.028185">
        <ele>134.039982</ele>
        <time>2024-06-30T07:16:41.000Z</time>
      </trkpt>
      <trkpt lat="50.610124" lon="-2.02966">
        <ele>133.12186</ele>
        <time>2024-06-30T07:16:52.000Z</time>
      </trkpt>
      <trkpt lat="50.610316" lon="-2.031103">
        <ele>132.122289</ele>
        <time>2024-06-30T07:17:02.000Z</time>
      </trkpt>
      <trkpt lat="50.610338" lon="-2.031274">
        <ele>132.007533</ele>
        <time>2024-06-30T07:17:03.000Z</time>
      </trkpt>
      <trkpt lat="50.610411" lon="-2.032065">
        <ele>131.458426</ele>
        <time>2024-06-30T07:17:09.000Z</time>
      </trkpt>
      <trkpt lat="50.610415" lon="-2.032766">
        <ele>131.078695</ele>
        <time>2024-06-30T07:17:14.000Z</time>
      </trkpt>
      <trkpt lat="50.610478" lon="-2.033532">
        <ele>130.656288</ele>
        <time>2024-06-30T07:17:19.000Z</time>
      </trkpt>
      <trkpt lat="50.610825" lon="-2.036259">
        <ele>129.34255</ele>
        <time>2024-06-30T07:17:39.000Z</time>
      </trkpt>
      <trkpt lat="50.610914" lon="-2.036758">
        <ele>129.130162</ele>
        <time>2024-06-30T07:17:43.000Z</time>
      </trkpt>
      <trkpt lat="50.611138" lon="-2.03761">
        <ele>128.767465</ele>
        <time>2024-06-30T07:17:50.000Z</time>
      </trkpt>
      <trkpt lat="50.611373" lon="-2.038721">
        <ele>129.07773</ele>
        <time>2024-06-30T07:17:58.000Z</time>
      </trkpt>
      <trkpt lat="50.611606" lon="-2.040049">
        <ele>129.4577</ele>
        <time>2024-06-30T07:18:08.000Z</time>
      </trkpt>
      <trkpt lat="50.611785" lon="-2.04136">
        <ele>130.888965</ele>
        <time>2024-06-30T07:18:17.000Z</time>
      </trkpt>
      <trkpt lat="50.611799" lon="-2.041483">
        <ele>131.052292</ele>
        <time>2024-06-30T07:18:18.000Z</time>
      </trkpt>
      <trkpt lat="50.612024" lon="-2.04315">
        <ele>133.229088</ele>
        <time>2024-06-30T07:18:30.000Z</time>
      </trkpt>
      <trkpt lat="50.612146" lon="-2.043982">
        <ele>133.366355</ele>
        <time>2024-06-30T07:18:36.000Z</time>
      </trkpt>
      <trkpt lat="50.612235" lon="-2.044369">
        <ele>133.431483</ele>
        <time>2024-06-30T07:18:39.000Z</time>
      </trkpt>
      <trkpt lat="50.612342" lon="-2.044684">
        <ele>133.488681</ele>
        <time>2024-06-30T07:18:42.000Z</time>
      </trkpt>
      <trkpt lat="50.612448" lon="-2.044921">
        <ele>133.533212</ele>
        <time>2024-06-30T07:18:44.000Z</time>
      </trkpt>
      <trkpt lat="50.612613" lon="-2.045524">
        <ele>133.636922</ele>
        <time>2024-06-30T07:18:49.000Z</time>
      </trkpt>
      <trkpt lat="50.613223" lon="-2.049312">
        <ele>129.064073</ele>
        <time>2024-06-30T07:19:17.000Z</time>
      </trkpt>
      <trkpt lat="50.61334" lon="-2.050035">
        <ele>128.624901</ele>
        <time>2024-06-30T07:19:22.000Z</time>
      </trkpt>
      <trkpt lat="50.6134" lon="-2.05105">
        <ele>128.036005</ele>
        <time>2024-06-30T07:19:29.000Z</time>
      </trkpt>
      <trkpt lat="50.613412" lon="-2.051589">
        <ele>128.245803</ele>
        <time>2024-06-30T07:19:33.000Z</time>
      </trkpt>
      <trkpt lat="50.613313" lon="-2.054688">
        <ele>131.042246</ele>
        <time>2024-06-30T07:19:55.000Z</time>
      </trkpt>
      <trkpt lat="50.613315" lon="-2.055123">
        <ele>131.177247</ele>
        <time>2024-06-30T07:19:58.000Z</time>
      </trkpt>
      <trkpt lat="50.613412" lon="-2.055397">
        <ele>131.277659</ele>
        <time>2024-06-30T07:20:00.000Z</time>
      </trkpt>
      <trkpt lat="50.613776" lon="-2.056106">
        <ele>131.563327</ele>
        <time>2024-06-30T07:20:06.000Z</time>
      </trkpt>
      <trkpt lat="50.6142" lon="-2.05689">
        <ele>131.061558</ele>
        <time>2024-06-30T07:20:13.000Z</time>
      </trkpt>
      <trkpt lat="50.615488" lon="-2.059296">
        <ele>125.514472</ele>
        <time>2024-06-30T07:20:35.000Z</time>
      </trkpt>
      <trkpt lat="50.615764" lon="-2.059812">
        <ele>123.845265</ele>
        <time>2024-06-30T07:20:40.000Z</time>
      </trkpt>
      <trkpt lat="50.615854" lon="-2.060005">
        <ele>123.29302</ele>
        <time>2024-06-30T07:20:42.000Z</time>
      </trkpt>
      <trkpt lat="50.615936" lon="-2.060298">
        <ele>122.524021</ele>
        <time>2024-06-30T07:20:44.000Z</time>
      </trkpt>
      <trkpt lat="50.61621" lon="-2.061027">
        <ele>120.468535</ele>
        <time>2024-06-30T07:20:50.000Z</time>
      </trkpt>
      <trkpt lat="50.61626" lon="-2.061309">
        <ele>118.825051</ele>
        <time>2024-06-30T07:20:52.000Z</time>
      </trkpt>
      <trkpt lat="50.616306" lon="-2.061737">
        <ele>116.446726</ele>
        <time>2024-06-30T07:20:55.000Z</time>
      </trkpt>
      <trkpt lat="50.616341" lon="-2.061859">
        <ele>115.680369</ele>
        <time>2024-06-30T07:20:56.000Z</time>
      </trkpt>
      <trkpt lat="50.61642" lon="-2.061898">
        <ele>114.961015</ele>
        <time>2024-06-30T07:20:57.000Z</time>
      </trkpt>
      <trkpt lat="50.616714" lon="-2.061892">
        <ele>112.423469</ele>
        <time>2024-06-30T07:21:00.000Z</time>
      </trkpt>
      <trkpt lat="50.617014" lon="-2.061651">
        <ele>109.518051</ele>
        <time>2024-06-30T07:21:04.000Z</time>
      </trkpt>
      <trkpt lat="50.617209" lon="-2.061488">
        <ele>107.539621</ele>
        <time>2024-06-30T07:21:06.000Z</time>
      </trkpt>
      <trkpt lat="50.617436" lon="-2.061208">
        <ele>105.089529</ele>
        <time>2024-06-30T07:21:09.000Z</time>
      </trkpt>
      <trkpt lat="50.617722" lon="-2.060537">
        <ele>99.080432</ele>
        <time>2024-06-30T07:21:15.000Z</time>
      </trkpt>
      <trkpt lat="50.617853" lon="-2.060397">
        <ele>97.235316</ele>
        <time>2024-06-30T07:21:17.000Z</time>
      </trkpt>
      <trkpt lat="50.617992" lon="-2.060426">
        <ele>95.569149</ele>
        <time>2024-06-30T07:21:19.000Z</time>
      </trkpt>
      <trkpt lat="50.618305" lon="-2.060699">
        <ele>91.409048</ele>
        <time>2024-06-30T07:21:23.000Z</time>
      </trkpt>
      <trkpt lat="50.618584" lon="-2.060871">
        <ele>87.901601</ele>
        <time>2024-06-30T07:21:26.000Z</time>
      </trkpt>
      <trkpt lat="50.618816" lon="-2.060915">
        <ele>85.05105</ele>
        <time>2024-06-30T07:21:29.000Z</time>
      </trkpt>
      <trkpt lat="50.619071" lon="-2.060929">
        <ele>82.278257</ele>
        <time>2024-06-30T07:21:32.000Z</time>
      </trkpt>
      <trkpt lat="50.619198" lon="-2.060892">
        <ele>80.949656</ele>
        <time>2024-06-30T07:21:33.000Z</time>
      </trkpt>
      <trkpt lat="50.619503" lon="-2.060747">
        <ele>77.798005</ele>
        <time>2024-06-30T07:21:37.000Z</time>
      </trkpt>
      <trkpt lat="50.61964" lon="-2.060608">
        <ele>76.089991</ele>
        <time>2024-06-30T07:21:39.000Z</time>
      </trkpt>
      <trkpt lat="50.619764" lon="-2.060295">
        <ele>73.797012</ele>
        <time>2024-06-30T07:21:42.000Z</time>
      </trkpt>
      <trkpt lat="50.619812" lon="-2.06002">
        <ele>71.903232</ele>
        <time>2024-06-30T07:21:44.000Z</time>
      </trkpt>
      <trkpt lat="50.619801" lon="-2.05988">
        <ele>71.030322</ele>
        <time>2024-06-30T07:21:45.000Z</time>
      </trkpt>
      <trkpt lat="50.619726" lon="-2.059622">
        <ele>69.199839</ele>
        <time>2024-06-30T07:21:47.000Z</time>
      </trkpt>
      <trkpt lat="50.619724" lon="-2.0595">
        <ele>68.409905</ele>
        <time>2024-06-30T07:21:48.000Z</time>
      </trkpt>
      <trkpt lat="50.619763" lon="-2.059297">
        <ele>66.999308</ele>
        <time>2024-06-30T07:21:50.000Z</time>
      </trkpt>
      <trkpt lat="50.619818" lon="-2.059222">
        <ele>66.321817</ele>
        <time>2024-06-30T07:21:51.000Z</time>
      </trkpt>
      <trkpt lat="50.619942" lon="-2.059138">
        <ele>64.905772</ele>
        <time>2024-06-30T07:21:53.000Z</time>
      </trkpt>
      <trkpt lat="50.620027" lon="-2.059103">
        <ele>64.105139</ele>
        <time>2024-06-30T07:21:54.000Z</time>
      </trkpt>
      <trkpt lat="50.6202" lon="-2.059173">
        <ele>62.319383</ele>
        <time>2024-06-30T07:21:56.000Z</time>
      </trkpt>
      <trkpt lat="50.62025" lon="-2.059195">
        <ele>61.786641</ele>
        <time>2024-06-30T07:21:57.000Z</time>
      </trkpt>
      <trkpt lat="50.620413" lon="-2.05936">
        <ele>59.873006</ele>
        <time>2024-06-30T07:21:59.000Z</time>
      </trkpt>
      <trkpt lat="50.620591" lon="-2.059454">
        <ele>58.073608</ele>
        <time>2024-06-30T07:22:01.000Z</time>
      </trkpt>
      <trkpt lat="50.620737" lon="-2.059489">
        <ele>56.599084</ele>
        <time>2024-06-30T07:22:03.000Z</time>
      </trkpt>
      <trkpt lat="50.620916" lon="-2.059494">
        <ele>54.762914</ele>
        <time>2024-06-30T07:22:05.000Z</time>
      </trkpt>
      <trkpt lat="50.621204" lon="-2.059392">
        <ele>51.741416</ele>
        <time>2024-06-30T07:22:08.000Z</time>
      </trkpt>
      <trkpt lat="50.622268" lon="-2.058894">
        <ele>43.596006</ele>
        <time>2024-06-30T07:22:20.000Z</time>
      </trkpt>
      <trkpt lat="50.62345" lon="-2.058501">
        <ele>36.8435</ele>
        <time>2024-06-30T07:22:33.000Z</time>
      </trkpt>
      <trkpt lat="50.623628" lon="-2.058434">
        <ele>36.203495</ele>
        <time>2024-06-30T07:22:35.000Z</time>
      </trkpt>
      <trkpt lat="50.62426" lon="-2.058199">
        <ele>34.007907</ele>
        <time>2024-06-30T07:22:42.000Z</time>
      </trkpt>
      <trkpt lat="50.624554" lon="-2.058042">
        <ele>32.945604</ele>
        <time>2024-06-30T07:22:45.000Z</time>
      </trkpt>
      <trkpt lat="50.624867" lon="-2.057763">
        <ele>31.711623</ele>
        <time>2024-06-30T07:22:49.000Z</time>
      </trkpt>
      <trkpt lat="50.625121" lon="-2.057465">
        <ele>31.288079</ele>
        <time>2024-06-30T07:22:53.000Z</time>
      </trkpt>
      <trkpt lat="50.62634" lon="-2.055878">
        <ele>36.003298</ele>
        <time>2024-06-30T07:23:11.000Z</time>
      </trkpt>
      <trkpt lat="50.627639" lon="-2.054261">
        <ele>40.965617</ele>
        <time>2024-06-30T07:23:29.000Z</time>
      </trkpt>
      <trkpt lat="50.627711" lon="-2.054166">
        <ele>41.274164</ele>
        <time>2024-06-30T07:23:30.000Z</time>
      </trkpt>
      <trkpt lat="50.628149" lon="-2.053557">
        <ele>40.914713</ele>
        <time>2024-06-30T07:23:36.000Z</time>
      </trkpt>
      <trkpt lat="50.629371" lon="-2.051725">
        <ele>37.771695</ele>
        <time>2024-06-30T07:23:55.000Z</time>
      </trkpt>
      <trkpt lat="50.629433" lon="-2.051694">
        <ele>37.73201</ele>
        <time>2024-06-30T07:23:56.000Z</time>
      </trkpt>
      <trkpt lat="50.629578" lon="-2.051592">
        <ele>37.618658</ele>
        <time>2024-06-30T07:23:58.000Z</time>
      </trkpt>
      <trkpt lat="50.62973" lon="-2.051702">
        <ele>37.501768</ele>
        <time>2024-06-30T07:24:00.000Z</time>
      </trkpt>
      <trkpt lat="50.630391" lon="-2.051976">
        <ele>37.01024</ele>
        <time>2024-06-30T07:24:08.000Z</time>
      </trkpt>
      <trkpt lat="50.630739" lon="-2.052116">
        <ele>36.744079</ele>
        <time>2024-06-30T07:24:12.000Z</time>
      </trkpt>
      <trkpt lat="50.63136" lon="-2.052479">
        <ele>35.799847</ele>
        <time>2024-06-30T07:24:19.000Z</time>
      </trkpt>
      <trkpt lat="50.631793" lon="-2.052681">
        <ele>35.107142</ele>
        <time>2024-06-30T07:24:24.000Z</time>
      </trkpt>
      <trkpt lat="50.632092" lon="-2.052818">
        <ele>34.622287</ele>
        <time>2024-06-30T07:24:27.000Z</time>
      </trkpt>
      <trkpt lat="50.632328" lon="-2.052922">
        <ele>34.252715</ele>
        <time>2024-06-30T07:24:30.000Z</time>
      </trkpt>
      <trkpt lat="50.632692" lon="-2.053102">
        <ele>33.716988</ele>
        <time>2024-06-30T07:24:34.000Z</time>
      </trkpt>
      <trkpt lat="50.632837" lon="-2.053166">
        <ele>33.535903</ele>
        <time>2024-06-30T07:24:36.000Z</time>
      </trkpt>
      <trkpt lat="50.633566" lon="-2.053456">
        <ele>32.567518</ele>
        <time>2024-06-30T07:24:44.000Z</time>
      </trkpt>
      <trkpt lat="50.633905" lon="-2.053606">
        <ele>32.097163</ele>
        <time>2024-06-30T07:24:48.000Z</time>
      </trkpt>
      <trkpt lat="50.634129" lon="-2.0537">
        <ele>31.815195</ele>
        <time>2024-06-30T07:24:51.000Z</time>
      </trkpt>
      <trkpt lat="50.634628" lon="-2.053959">
        <ele>31.127367</ele>
        <time>2024-06-30T07:24:57.000Z</time>
      </trkpt>
      <trkpt lat="50.634754" lon="-2.054026">
        <ele>30.957795</ele>
        <time>2024-06-30T07:24:58.000Z</time>
      </trkpt>
      <trkpt lat="50.635414" lon="-2.054317">
        <ele>30.043439</ele>
        <time>2024-06-30T07:25:06.000Z</time>
      </trkpt>
      <trkpt lat="50.635689" lon="-2.05445">
        <ele>29.668594</ele>
        <time>2024-06-30T07:25:09.000Z</time>
      </trkpt>
      <trkpt lat="50.635913" lon="-2.054588">
        <ele>29.36856</ele>
        <time>2024-06-30T07:25:12.000Z</time>
      </trkpt>
      <trkpt lat="50.636586" lon="-2.055069">
        <ele>28.641484</ele>
        <time>2024-06-30T07:25:20.000Z</time>
      </trkpt>
      <trkpt lat="50.637107" lon="-2.055513">
        <ele>28.063885</ele>
        <time>2024-06-30T07:25:27.000Z</time>
      </trkpt>
      <trkpt lat="50.637264" lon="-2.055661">
        <ele>27.885643</ele>
        <time>2024-06-30T07:25:29.000Z</time>
      </trkpt>
      <trkpt lat="50.637524" lon="-2.055906">
        <ele>27.595563</ele>
        <time>2024-06-30T07:25:32.000Z</time>
      </trkpt>
      <trkpt lat="50.637736" lon="-2.056155">
        <ele>27.067218</ele>
        <time>2024-06-30T07:25:35.000Z</time>
      </trkpt>
      <trkpt lat="50.637915" lon="-2.056363">
        <ele>26.564462</ele>
        <time>2024-06-30T07:25:37.000Z</time>
      </trkpt>
      <trkpt lat="50.638194" lon="-2.05667">
        <ele>25.79069</ele>
        <time>2024-06-30T07:25:41.000Z</time>
      </trkpt>
      <trkpt lat="50.638336" lon="-2.056845">
        <ele>25.393723</ele>
        <time>2024-06-30T07:25:43.000Z</time>
      </trkpt>
      <trkpt lat="50.638394" lon="-2.056939">
        <ele>25.195208</ele>
        <time>2024-06-30T07:25:44.000Z</time>
      </trkpt>
      <trkpt lat="50.638489" lon="-2.057061">
        <ele>24.937958</ele>
        <time>2024-06-30T07:25:45.000Z</time>
      </trkpt>
      <trkpt lat="50.638541" lon="-2.057088">
        <ele>24.809451</ele>
        <time>2024-06-30T07:25:46.000Z</time>
      </trkpt>
      <trkpt lat="50.638615" lon="-2.057056">
        <ele>24.663279</ele>
        <time>2024-06-30T07:25:47.000Z</time>
      </trkpt>
      <trkpt lat="50.638837" lon="-2.056914">
        <ele>24.113157</ele>
        <time>2024-06-30T07:25:50.000Z</time>
      </trkpt>
      <trkpt lat="50.639051" lon="-2.056835">
        <ele>23.618748</ele>
        <time>2024-06-30T07:25:52.000Z</time>
      </trkpt>
      <trkpt lat="50.639163" lon="-2.05674">
        <ele>23.38148</ele>
        <time>2024-06-30T07:25:53.000Z</time>
      </trkpt>
      <trkpt lat="50.639236" lon="-2.056656">
        <ele>23.247265</ele>
        <time>2024-06-30T07:25:54.000Z</time>
      </trkpt>
      <trkpt lat="50.639287" lon="-2.056598">
        <ele>23.134846</ele>
        <time>2024-06-30T07:25:55.000Z</time>
      </trkpt>
      <trkpt lat="50.639355" lon="-2.056566">
        <ele>23.008354</ele>
        <time>2024-06-30T07:25:56.000Z</time>
      </trkpt>
      <trkpt lat="50.639428" lon="-2.056569">
        <ele>22.898568</ele>
        <time>2024-06-30T07:25:57.000Z</time>
      </trkpt>
      <trkpt lat="50.639524" lon="-2.056655">
        <ele>22.712223</ele>
        <time>2024-06-30T07:25:58.000Z</time>
      </trkpt>
      <trkpt lat="50.639781" lon="-2.057129">
        <ele>22.038416</ele>
        <time>2024-06-30T07:26:02.000Z</time>
      </trkpt>
      <trkpt lat="50.639905" lon="-2.05727">
        <ele>21.793537</ele>
        <time>2024-06-30T07:26:04.000Z</time>
      </trkpt>
      <trkpt lat="50.639993" lon="-2.057343">
        <ele>21.611639</ele>
        <time>2024-06-30T07:26:05.000Z</time>
      </trkpt>
      <trkpt lat="50.640038" lon="-2.057366">
        <ele>21.530699</ele>
        <time>2024-06-30T07:26:06.000Z</time>
      </trkpt>
      <trkpt lat="50.640627" lon="-2.057389">
        <ele>20.540222</ele>
        <time>2024-06-30T07:26:13.000Z</time>
      </trkpt>
      <trkpt lat="50.640841" lon="-2.057466">
        <ele>20.377741</ele>
        <time>2024-06-30T07:26:15.000Z</time>
      </trkpt>
      <trkpt lat="50.641135" lon="-2.057683">
        <ele>20.137002</ele>
        <time>2024-06-30T07:26:19.000Z</time>
      </trkpt>
      <trkpt lat="50.641319" lon="-2.057951">
        <ele>19.945299</ele>
        <time>2024-06-30T07:26:22.000Z</time>
      </trkpt>
      <trkpt lat="50.641411" lon="-2.058142">
        <ele>19.832814</ele>
        <time>2024-06-30T07:26:24.000Z</time>
      </trkpt>
      <trkpt lat="50.641542" lon="-2.05853">
        <ele>19.623494</ele>
        <time>2024-06-30T07:26:27.000Z</time>
      </trkpt>
      <trkpt lat="50.641591" lon="-2.058706">
        <ele>19.539779</ele>
        <time>2024-06-30T07:26:28.000Z</time>
      </trkpt>
      <trkpt lat="50.64163" lon="-2.058824">
        <ele>19.472404</ele>
        <time>2024-06-30T07:26:29.000Z</time>
      </trkpt>
      <trkpt lat="50.641688" lon="-2.059028">
        <ele>19.366226</ele>
        <time>2024-06-30T07:26:31.000Z</time>
      </trkpt>
      <trkpt lat="50.641767" lon="-2.059293">
        <ele>19.23209</ele>
        <time>2024-06-30T07:26:33.000Z</time>
      </trkpt>
      <trkpt lat="50.642138" lon="-2.060539">
        <ele>21.814411</ele>
        <time>2024-06-30T07:26:43.000Z</time>
      </trkpt>
      <trkpt lat="50.642716" lon="-2.062182">
        <ele>25.314147</ele>
        <time>2024-06-30T07:26:56.000Z</time>
      </trkpt>
      <trkpt lat="50.643061" lon="-2.062829">
        <ele>26.306782</ele>
        <time>2024-06-30T07:27:02.000Z</time>
      </trkpt>
      <trkpt lat="50.643637" lon="-2.063914">
        <ele>27.985427</ele>
        <time>2024-06-30T07:27:12.000Z</time>
      </trkpt>
      <trkpt lat="50.643713" lon="-2.064053">
        <ele>28.179687</ele>
        <time>2024-06-30T07:27:13.000Z</time>
      </trkpt>
      <trkpt lat="50.644142" lon="-2.064847">
        <ele>28.290378</ele>
        <time>2024-06-30T07:27:20.000Z</time>
      </trkpt>
      <trkpt lat="50.644218" lon="-2.064976">
        <ele>28.300074</ele>
        <time>2024-06-30T07:27:21.000Z</time>
      </trkpt>
      <trkpt lat="50.644408" lon="-2.065183">
        <ele>28.321106</ele>
        <time>2024-06-30T07:27:24.000Z</time>
      </trkpt>
      <trkpt lat="50.644439" lon="-2.065208">
        <ele>28.324089</ele>
        <time>2024-06-30T07:27:24.000Z</time>
      </trkpt>
      <trkpt lat="50.644579" lon="-2.065386">
        <ele>28.340795</ele>
        <time>2024-06-30T07:27:26.000Z</time>
      </trkpt>
      <trkpt lat="50.644715" lon="-2.065623">
        <ele>28.35811</ele>
        <time>2024-06-30T07:27:28.000Z</time>
      </trkpt>
      <trkpt lat="50.644745" lon="-2.065739">
        <ele>28.365535</ele>
        <time>2024-06-30T07:27:29.000Z</time>
      </trkpt>
      <trkpt lat="50.644783" lon="-2.066079">
        <ele>28.385111</ele>
        <time>2024-06-30T07:27:31.000Z</time>
      </trkpt>
      <trkpt lat="50.644877" lon="-2.066414">
        <ele>28.565976</ele>
        <time>2024-06-30T07:27:34.000Z</time>
      </trkpt>
      <trkpt lat="50.64537" lon="-2.067711">
        <ele>29.819174</ele>
        <time>2024-06-30T07:27:45.000Z</time>
      </trkpt>
      <trkpt lat="50.645768" lon="-2.068591">
        <ele>30.721462</ele>
        <time>2024-06-30T07:27:53.000Z</time>
      </trkpt>
      <trkpt lat="50.646141" lon="-2.06941">
        <ele>31.277102</ele>
        <time>2024-06-30T07:28:00.000Z</time>
      </trkpt>
      <trkpt lat="50.646454" lon="-2.070064">
        <ele>31.715899</ele>
        <time>2024-06-30T07:28:06.000Z</time>
      </trkpt>
      <trkpt lat="50.648062" lon="-2.073501">
        <ele>32.510287</ele>
        <time>2024-06-30T07:28:36.000Z</time>
      </trkpt>
      <trkpt lat="50.648879" lon="-2.07527">
        <ele>33.116638</ele>
        <time>2024-06-30T07:28:51.000Z</time>
      </trkpt>
      <trkpt lat="50.64943" lon="-2.076429">
        <ele>32.790776</ele>
        <time>2024-06-30T07:29:01.000Z</time>
      </trkpt>
      <trkpt lat="50.649576" lon="-2.076723">
        <ele>32.667842</ele>
        <time>2024-06-30T07:29:04.000Z</time>
      </trkpt>
      <trkpt lat="50.65057" lon="-2.078417">
        <ele>32.290154</ele>
        <time>2024-06-30T07:29:20.000Z</time>
      </trkpt>
      <trkpt lat="50.650701" lon="-2.078624">
        <ele>32.308107</ele>
        <time>2024-06-30T07:29:22.000Z</time>
      </trkpt>
      <trkpt lat="50.651325" lon="-2.079507">
        <ele>32.387744</ele>
        <time>2024-06-30T07:29:31.000Z</time>
      </trkpt>
      <trkpt lat="50.65292" lon="-2.081606">
        <ele>32.311098</ele>
        <time>2024-06-30T07:29:54.000Z</time>
      </trkpt>
      <trkpt lat="50.65419" lon="-2.083296">
        <ele>31.477007</ele>
        <time>2024-06-30T07:30:12.000Z</time>
      </trkpt>
      <trkpt lat="50.657258" lon="-2.087505">
        <ele>31.186349</ele>
        <time>2024-06-30T07:30:57.000Z</time>
      </trkpt>
      <trkpt lat="50.657354" lon="-2.087623">
        <ele>31.128024</ele>
        <time>2024-06-30T07:30:58.000Z</time>
      </trkpt>
      <trkpt lat="50.657671" lon="-2.088075">
        <ele>30.899319</ele>
        <time>2024-06-30T07:31:03.000Z</time>
      </trkpt>
      <trkpt lat="50.658073" lon="-2.088624">
        <ele>30.617586</ele>
        <time>2024-06-30T07:31:09.000Z</time>
      </trkpt>
      <trkpt lat="50.660428" lon="-2.091877">
        <ele>27.906948</ele>
        <time>2024-06-30T07:31:44.000Z</time>
      </trkpt>
      <trkpt lat="50.660483" lon="-2.091953">
        <ele>27.869511</ele>
        <time>2024-06-30T07:31:45.000Z</time>
      </trkpt>
      <trkpt lat="50.661293" lon="-2.093102">
        <ele>27.956288</ele>
        <time>2024-06-30T07:31:57.000Z</time>
      </trkpt>
      <trkpt lat="50.662797" lon="-2.095246">
        <ele>29.090328</ele>
        <time>2024-06-30T07:32:20.000Z</time>
      </trkpt>
      <trkpt lat="50.663031" lon="-2.095545">
        <ele>29.127325</ele>
        <time>2024-06-30T07:32:23.000Z</time>
      </trkpt>
      <trkpt lat="50.663451" lon="-2.096026">
        <ele>29.190719</ele>
        <time>2024-06-30T07:32:29.000Z</time>
      </trkpt>
      <trkpt lat="50.663831" lon="-2.096324">
        <ele>29.164792</ele>
        <time>2024-06-30T07:32:34.000Z</time>
      </trkpt>
      <trkpt lat="50.66428" lon="-2.096635">
        <ele>28.967478</ele>
        <time>2024-06-30T07:32:39.000Z</time>
      </trkpt>
      <trkpt lat="50.665413" lon="-2.097321">
        <ele>28.377888</ele>
        <time>2024-06-30T07:32:52.000Z</time>
      </trkpt>
      <trkpt lat="50.66593" lon="-2.097711">
        <ele>27.276845</ele>
        <time>2024-06-30T07:32:58.000Z</time>
      </trkpt>
      <trkpt lat="50.666238" lon="-2.098034">
        <ele>26.545429</ele>
        <time>2024-06-30T07:33:02.000Z</time>
      </trkpt>
      <trkpt lat="50.66668" lon="-2.098578">
        <ele>25.438629</ele>
        <time>2024-06-30T07:33:08.000Z</time>
      </trkpt>
      <trkpt lat="50.667168" lon="-2.099379">
        <ele>23.467468</ele>
        <time>2024-06-30T07:33:16.000Z</time>
      </trkpt>
      <trkpt lat="50.667539" lon="-2.100182">
        <ele>21.445211</ele>
        <time>2024-06-30T07:33:23.000Z</time>
      </trkpt>
      <trkpt lat="50.667731" lon="-2.100674">
        <ele>20.282814</ele>
        <time>2024-06-30T07:33:27.000Z</time>
      </trkpt>
      <trkpt lat="50.668124" lon="-2.10168">
        <ele>18.60931</ele>
        <time>2024-06-30T07:33:35.000Z</time>
      </trkpt>
      <trkpt lat="50.668154" lon="-2.10203">
        <ele>18.286855</ele>
        <time>2024-06-30T07:33:37.000Z</time>
      </trkpt>
      <trkpt lat="50.66809" lon="-2.102294">
        <ele>18.039887</ele>
        <time>2024-06-30T07:33:39.000Z</time>
      </trkpt>
      <trkpt lat="50.668031" lon="-2.102359">
        <ele>17.95395</ele>
        <time>2024-06-30T07:33:40.000Z</time>
      </trkpt>
      <trkpt lat="50.668009" lon="-2.102489">
        <ele>17.824725</ele>
        <time>2024-06-30T07:33:41.000Z</time>
      </trkpt>
      <trkpt lat="50.66803" lon="-2.102613">
        <ele>17.707458</ele>
        <time>2024-06-30T07:33:42.000Z</time>
      </trkpt>
      <trkpt lat="50.668044" lon="-2.102662">
        <ele>17.662998</ele>
        <time>2024-06-30T07:33:42.000Z</time>
      </trkpt>
      <trkpt lat="50.668028" lon="-2.102834">
        <ele>17.501688</ele>
        <time>2024-06-30T07:33:43.000Z</time>
      </trkpt>
      <trkpt lat="50.668031" lon="-2.103237">
        <ele>17.136657</ele>
        <time>2024-06-30T07:33:46.000Z</time>
      </trkpt>
      <trkpt lat="50.668133" lon="-2.104064">
        <ele>16.338257</ele>
        <time>2024-06-30T07:33:52.000Z</time>
      </trkpt>
      <trkpt lat="50.668257" lon="-2.104684">
        <ele>15.638121</ele>
        <time>2024-06-30T07:33:57.000Z</time>
      </trkpt>
      <trkpt lat="50.668421" lon="-2.105339">
        <ele>14.870956</ele>
        <time>2024-06-30T07:34:02.000Z</time>
      </trkpt>
      <trkpt lat="50.6686" lon="-2.105904">
        <ele>14.178359</ele>
        <time>2024-06-30T07:34:06.000Z</time>
      </trkpt>
      <trkpt lat="50.668877" lon="-2.106603">
        <ele>13.121713</ele>
        <time>2024-06-30T07:34:12.000Z</time>
      </trkpt>
      <trkpt lat="50.669134" lon="-2.107093">
        <ele>12.099254</ele>
        <time>2024-06-30T07:34:16.000Z</time>
      </trkpt>
      <trkpt lat="50.66946" lon="-2.107635">
        <ele>10.856796</ele>
        <time>2024-06-30T07:34:21.000Z</time>
      </trkpt>
      <trkpt lat="50.669818" lon="-2.108112">
        <ele>9.635187</ele>
        <time>2024-06-30T07:34:26.000Z</time>
      </trkpt>
      <trkpt lat="50.670501" lon="-2.108807">
        <ele>8.024997</ele>
        <time>2024-06-30T07:34:35.000Z</time>
      </trkpt>
      <trkpt lat="50.672068" lon="-2.110281">
        <ele>5.398302</ele>
        <time>2024-06-30T07:34:55.000Z</time>
      </trkpt>
      <trkpt lat="50.672362" lon="-2.110557">
        <ele>5.087184</ele>
        <time>2024-06-30T07:34:59.000Z</time>
      </trkpt>
      <trkpt lat="50.672509" lon="-2.110685">
        <ele>4.942534</ele>
        <time>2024-06-30T07:35:01.000Z</time>
      </trkpt>
      <trkpt lat="50.672949" lon="-2.111057">
        <ele>4.485803</ele>
        <time>2024-06-30T07:35:07.000Z</time>
      </trkpt>
      <trkpt lat="50.673093" lon="-2.111191">
        <ele>4.350954</ele>
        <time>2024-06-30T07:35:09.000Z</time>
      </trkpt>
      <trkpt lat="50.673194" lon="-2.111298">
        <ele>4.268644</ele>
        <time>2024-06-30T07:35:10.000Z</time>
      </trkpt>
      <trkpt lat="50.673563" lon="-2.111629">
        <ele>4.202704</ele>
        <time>2024-06-30T07:35:15.000Z</time>
      </trkpt>
      <trkpt lat="50.673791" lon="-2.111839">
        <ele>4.159617</ele>
        <time>2024-06-30T07:35:18.000Z</time>
      </trkpt>
      <trkpt lat="50.673899" lon="-2.111953">
        <ele>4.138536</ele>
        <time>2024-06-30T07:35:19.000Z</time>
      </trkpt>
      <trkpt lat="50.673982" lon="-2.112025">
        <ele>4.122894</ele>
        <time>2024-06-30T07:35:20.000Z</time>
      </trkpt>
      <trkpt lat="50.674852" lon="-2.112883">
        <ele>3.765649</ele>
        <time>2024-06-30T07:35:31.000Z</time>
      </trkpt>
      <trkpt lat="50.67511" lon="-2.113181">
        <ele>3.399849</ele>
        <time>2024-06-30T07:35:35.000Z</time>
      </trkpt>
      <trkpt lat="50.675528" lon="-2.113754">
        <ele>2.765371</ele>
        <time>2024-06-30T07:35:41.000Z</time>
      </trkpt>
      <trkpt lat="50.675988" lon="-2.114577">
        <ele>1.976054</ele>
        <time>2024-06-30T07:35:49.000Z</time>
      </trkpt>
      <trkpt lat="50.676381" lon="-2.115545">
        <ele>1.150997</ele>
        <time>2024-06-30T07:35:57.000Z</time>
      </trkpt>
      <trkpt lat="50.67673" lon="-2.116554">
        <ele>0.338897</ele>
        <time>2024-06-30T07:36:05.000Z</time>
      </trkpt>
      <trkpt lat="50.676989" lon="-2.117244">
        <ele>-0.092654</ele>
        <time>2024-06-30T07:36:11.000Z</time>
      </trkpt>
      <trkpt lat="50.677475" lon="-2.118586">
        <ele>-0.125104</ele>
        <time>2024-06-30T07:36:22.000Z</time>
      </trkpt>
      <trkpt lat="50.678444" lon="-2.121106">
        <ele>0.708222</ele>
        <time>2024-06-30T07:36:43.000Z</time>
      </trkpt>
      <trkpt lat="50.678844" lon="-2.121981">
        <ele>1.340196</ele>
        <time>2024-06-30T07:36:51.000Z</time>
      </trkpt>
      <trkpt lat="50.679126" lon="-2.122468">
        <ele>2.555746</ele>
        <time>2024-06-30T07:36:56.000Z</time>
      </trkpt>
      <trkpt lat="50.679395" lon="-2.122879">
        <ele>3.673458</ele>
        <time>2024-06-30T07:37:00.000Z</time>
      </trkpt>
      <trkpt lat="50.679919" lon="-2.123484">
        <ele>5.55903</ele>
        <time>2024-06-30T07:37:07.000Z</time>
      </trkpt>
      <trkpt lat="50.680161" lon="-2.123731">
        <ele>6.419019</ele>
        <time>2024-06-30T07:37:10.000Z</time>
      </trkpt>
      <trkpt lat="50.680623" lon="-2.1241">
        <ele>8.167512</ele>
        <time>2024-06-30T07:37:16.000Z</time>
      </trkpt>
      <trkpt lat="50.681189" lon="-2.124483">
        <ele>10.272084</ele>
        <time>2024-06-30T07:37:23.000Z</time>
      </trkpt>
      <trkpt lat="50.681878" lon="-2.124838">
        <ele>12.640722</ele>
        <time>2024-06-30T07:37:31.000Z</time>
      </trkpt>
      <trkpt lat="50.682321" lon="-2.124986">
        <ele>13.052504</ele>
        <time>2024-06-30T07:37:36.000Z</time>
      </trkpt>
      <trkpt lat="50.682647" lon="-2.125036">
        <ele>13.336812</ele>
        <time>2024-06-30T07:37:40.000Z</time>
      </trkpt>
      <trkpt lat="50.682939" lon="-2.125129">
        <ele>13.593866</ele>
        <time>2024-06-30T07:37:43.000Z</time>
      </trkpt>
      <trkpt lat="50.683018" lon="-2.125171">
        <ele>13.672943</ele>
        <time>2024-06-30T07:37:44.000Z</time>
      </trkpt>
      <trkpt lat="50.683143" lon="-2.125278">
        <ele>13.803848</ele>
        <time>2024-06-30T07:37:46.000Z</time>
      </trkpt>
      <trkpt lat="50.683228" lon="-2.125492">
        <ele>13.946736</ele>
        <time>2024-06-30T07:37:48.000Z</time>
      </trkpt>
      <trkpt lat="50.683391" lon="-2.125573">
        <ele>14.087465</ele>
        <time>2024-06-30T07:37:50.000Z</time>
      </trkpt>
      <trkpt lat="50.683467" lon="-2.125567">
        <ele>14.157616</ele>
        <time>2024-06-30T07:37:51.000Z</time>
      </trkpt>
      <trkpt lat="50.683596" lon="-2.125453">
        <ele>14.027548</ele>
        <time>2024-06-30T07:37:53.000Z</time>
      </trkpt>
      <trkpt lat="50.6838" lon="-2.125302">
        <ele>13.698717</ele>
        <time>2024-06-30T07:37:56.000Z</time>
      </trkpt>
      <trkpt lat="50.68402" lon="-2.125152">
        <ele>13.345073</ele>
        <time>2024-06-30T07:37:59.000Z</time>
      </trkpt>
      <trkpt lat="50.684679" lon="-2.124804">
        <ele>12.316578</ele>
        <time>2024-06-30T07:38:07.000Z</time>
      </trkpt>
      <trkpt lat="50.684967" lon="-2.124604">
        <ele>11.869061</ele>
        <time>2024-06-30T07:38:10.000Z</time>
      </trkpt>
      <trkpt lat="50.685589" lon="-2.124021">
        <ele>10.036212</ele>
        <time>2024-06-30T07:38:18.000Z</time>
      </trkpt>
      <trkpt lat="50.685925" lon="-2.123666">
        <ele>8.826465</ele>
        <time>2024-06-30T07:38:22.000Z</time>
      </trkpt>
      <trkpt lat="50.686791" lon="-2.122654">
        <ele>5.680912</ele>
        <time>2024-06-30T07:38:34.000Z</time>
      </trkpt>
      <trkpt lat="50.687059" lon="-2.122309">
        <ele>4.803995</ele>
        <time>2024-06-30T07:38:38.000Z</time>
      </trkpt>
      <trkpt lat="50.687171" lon="-2.12214">
        <ele>4.417896</ele>
        <time>2024-06-30T07:38:40.000Z</time>
      </trkpt>
      <trkpt lat="50.687539" lon="-2.121594">
        <ele>3.158418</ele>
        <time>2024-06-30T07:38:46.000Z</time>
      </trkpt>
      <trkpt lat="50.688399" lon="-2.120208">
        <ele>1.21009</ele>
        <time>2024-06-30T07:39:00.000Z</time>
      </trkpt>
      <trkpt lat="50.68861" lon="-2.119819">
        <ele>0.964004</ele>
        <time>2024-06-30T07:39:04.000Z</time>
      </trkpt>
      <trkpt lat="50.689357" lon="-2.11843">
        <ele>0.394575</ele>
        <time>2024-06-30T07:39:17.000Z</time>
      </trkpt>
      <trkpt lat="50.689475" lon="-2.118217">
        <ele>0.417739</ele>
        <time>2024-06-30T07:39:19.000Z</time>
      </trkpt>
      <trkpt lat="50.689873" lon="-2.117349">
        <ele>0.505873</ele>
        <time>2024-06-30T07:39:27.000Z</time>
      </trkpt>
      <trkpt lat="50.69007" lon="-2.116827">
        <ele>0.555401</ele>
        <time>2024-06-30T07:39:31.000Z</time>
      </trkpt>
      <trkpt lat="50.690311" lon="-2.115991">
        <ele>0.680181</ele>
        <time>2024-06-30T07:39:37.000Z</time>
      </trkpt>
      <trkpt lat="50.690396" lon="-2.115411">
        <ele>0.783806</ele>
        <time>2024-06-30T07:39:41.000Z</time>
      </trkpt>
      <trkpt lat="50.690527" lon="-2.114303">
        <ele>0.984098</ele>
        <time>2024-06-30T07:39:49.000Z</time>
      </trkpt>
      <trkpt lat="50.690568" lon="-2.113973">
        <ele>1.043558</ele>
        <time>2024-06-30T07:39:51.000Z</time>
      </trkpt>
      <trkpt lat="50.69069" lon="-2.113705">
        <ele>1.083528</ele>
        <time>2024-06-30T07:39:53.000Z</time>
      </trkpt>
      <trkpt lat="50.690805" lon="-2.113596">
        <ele>1.076591</ele>
        <time>2024-06-30T07:39:54.000Z</time>
      </trkpt>
      <trkpt lat="50.690843" lon="-2.113591">
        <ele>1.073827</ele>
        <time>2024-06-30T07:39:54.000Z</time>
      </trkpt>
      <trkpt lat="50.69093" lon="-2.113501">
        <ele>1.068142</ele>
        <time>2024-06-30T07:39:55.000Z</time>
      </trkpt>
      <trkpt lat="50.690951" lon="-2.113424">
        <ele>1.06528</ele>
        <time>2024-06-30T07:39:56.000Z</time>
      </trkpt>
      <trkpt lat="50.690963" lon="-2.113386">
        <ele>1.06373</ele>
        <time>2024-06-30T07:39:56.000Z</time>
      </trkpt>
      <trkpt lat="50.690981" lon="-2.113296">
        <ele>1.060528</ele>
        <time>2024-06-30T07:39:57.000Z</time>
      </trkpt>
      <trkpt lat="50.690935" lon="-2.113183">
        <ele>1.055525</ele>
        <time>2024-06-30T07:39:58.000Z</time>
      </trkpt>
      <trkpt lat="50.690875" lon="-2.113077">
        <ele>1.050732</ele>
        <time>2024-06-30T07:39:59.000Z</time>
      </trkpt>
      <trkpt lat="50.690825" lon="-2.113055">
        <ele>1.047306</ele>
        <time>2024-06-30T07:40:00.000Z</time>
      </trkpt>
      <trkpt lat="50.690717" lon="-2.113069">
        <ele>1.040484</ele>
        <time>2024-06-30T07:40:01.000Z</time>
      </trkpt>
      <trkpt lat="50.69068" lon="-2.113114">
        <ele>1.037936</ele>
        <time>2024-06-30T07:40:02.000Z</time>
      </trkpt>
      <trkpt lat="50.690627" lon="-2.113293">
        <ele>1.0312</ele>
        <time>2024-06-30T07:40:03.000Z</time>
      </trkpt>
      <trkpt lat="50.690633" lon="-2.113439">
        <ele>1.025596</ele>
        <time>2024-06-30T07:40:04.000Z</time>
      </trkpt>
      <trkpt lat="50.690607" lon="-2.113622">
        <ele>1.018731</ele>
        <time>2024-06-30T07:40:05.000Z</time>
      </trkpt>
      <trkpt lat="50.690577" lon="-2.113975">
        <ele>1.006135</ele>
        <time>2024-06-30T07:40:08.000Z</time>
      </trkpt>
      <trkpt lat="50.690534" lon="-2.114301">
        <ele>0.993934</ele>
        <time>2024-06-30T07:40:10.000Z</time>
      </trkpt>
      <trkpt lat="50.690395" lon="-2.115419">
        <ele>0.814947</ele>
        <time>2024-06-30T07:40:18.000Z</time>
      </trkpt>
      <trkpt lat="50.690299" lon="-2.115977">
        <ele>0.699176</ele>
        <time>2024-06-30T07:40:22.000Z</time>
      </trkpt>
      <trkpt lat="50.690086" lon="-2.116821">
        <ele>0.519509</ele>
        <time>2024-06-30T07:40:28.000Z</time>
      </trkpt>
      <trkpt lat="50.689877" lon="-2.117338">
        <ele>0.430146</ele>
        <time>2024-06-30T07:40:32.000Z</time>
      </trkpt>
      <trkpt lat="50.689465" lon="-2.118212">
        <ele>0.472581</ele>
        <time>2024-06-30T07:40:40.000Z</time>
      </trkpt>
      <trkpt lat="50.689369" lon="-2.118434">
        <ele>0.483729</ele>
        <time>2024-06-30T07:40:42.000Z</time>
      </trkpt>
      <trkpt lat="50.68862" lon="-2.119807">
        <ele>0.875911</ele>
        <time>2024-06-30T07:40:55.000Z</time>
      </trkpt>
      <trkpt lat="50.688401" lon="-2.120215">
        <ele>1.267845</ele>
        <time>2024-06-30T07:40:59.000Z</time>
      </trkpt>
      <trkpt lat="50.687551" lon="-2.121604">
        <ele>2.78138</ele>
        <time>2024-06-30T07:41:13.000Z</time>
      </trkpt>
      <trkpt lat="50.687052" lon="-2.122308">
        <ele>4.765527</ele>
        <time>2024-06-30T07:41:20.000Z</time>
      </trkpt>
      <trkpt lat="50.686783" lon="-2.12265">
        <ele>5.822867</ele>
        <time>2024-06-30T07:41:24.000Z</time>
      </trkpt>
      <trkpt lat="50.685913" lon="-2.123667">
        <ele>8.905083</ele>
        <time>2024-06-30T07:41:36.000Z</time>
      </trkpt>
      <trkpt lat="50.68558" lon="-2.124028">
        <ele>9.921116</ele>
        <time>2024-06-30T07:41:40.000Z</time>
      </trkpt>
      <trkpt lat="50.68496" lon="-2.124602">
        <ele>11.744567</ele>
        <time>2024-06-30T07:41:48.000Z</time>
      </trkpt>
      <trkpt lat="50.684679" lon="-2.1248">
        <ele>12.508775</ele>
        <time>2024-06-30T07:41:51.000Z</time>
      </trkpt>
      <trkpt lat="50.684015" lon="-2.125154">
        <ele>13.142359</ele>
        <time>2024-06-30T07:41:59.000Z</time>
      </trkpt>
      <trkpt lat="50.683814" lon="-2.12513">
        <ele>13.325676</ele>
        <time>2024-06-30T07:42:01.000Z</time>
      </trkpt>
      <trkpt lat="50.68365" lon="-2.125019">
        <ele>13.474279</ele>
        <time>2024-06-30T07:42:03.000Z</time>
      </trkpt>
      <trkpt lat="50.683587" lon="-2.124852">
        <ele>13.578604</ele>
        <time>2024-06-30T07:42:04.000Z</time>
      </trkpt>
      <trkpt lat="50.683456" lon="-2.124742">
        <ele>13.701753</ele>
        <time>2024-06-30T07:42:06.000Z</time>
      </trkpt>
      <trkpt lat="50.683315" lon="-2.124746">
        <ele>13.823471</ele>
        <time>2024-06-30T07:42:08.000Z</time>
      </trkpt>
      <trkpt lat="50.683208" lon="-2.124874">
        <ele>13.941344</ele>
        <time>2024-06-30T07:42:09.000Z</time>
      </trkpt>
      <trkpt lat="50.683023" lon="-2.124961">
        <ele>14.097509</ele>
        <time>2024-06-30T07:42:11.000Z</time>
      </trkpt>
      <trkpt lat="50.682645" lon="-2.125051">
        <ele>13.433402</ele>
        <time>2024-06-30T07:42:15.000Z</time>
      </trkpt>
      <trkpt lat="50.68232" lon="-2.124988">
        <ele>12.856072</ele>
        <time>2024-06-30T07:42:19.000Z</time>
      </trkpt>
      <trkpt lat="50.681874" lon="-2.12484">
        <ele>12.019888</ele>
        <time>2024-06-30T07:42:24.000Z</time>
      </trkpt>
      <trkpt lat="50.681187" lon="-2.124481">
        <ele>10.562587</ele>
        <time>2024-06-30T07:42:32.000Z</time>
      </trkpt>
      <trkpt lat="50.680623" lon="-2.124093">
        <ele>8.31065</ele>
        <time>2024-06-30T07:42:39.000Z</time>
      </trkpt>
      <trkpt lat="50.680166" lon="-2.12372">
        <ele>6.43587</ele>
        <time>2024-06-30T07:42:45.000Z</time>
      </trkpt>
      <trkpt lat="50.679918" lon="-2.123478">
        <ele>5.359822</ele>
        <time>2024-06-30T07:42:48.000Z</time>
      </trkpt>
      <trkpt lat="50.679408" lon="-2.122878">
        <ele>3.522719</ele>
        <time>2024-06-30T07:42:55.000Z</time>
      </trkpt>
      <trkpt lat="50.679119" lon="-2.122464">
        <ele>2.691675</ele>
        <time>2024-06-30T07:42:59.000Z</time>
      </trkpt>
      <trkpt lat="50.678842" lon="-2.12198">
        <ele>1.787902</ele>
        <time>2024-06-30T07:43:04.000Z</time>
      </trkpt>
      <trkpt lat="50.67845" lon="-2.121093">
        <ele>0.355085</ele>
        <time>2024-06-30T07:43:12.000Z</time>
      </trkpt>
      <trkpt lat="50.67812" lon="-2.120265">
        <ele>0.13311</ele>
        <time>2024-06-30T07:43:19.000Z</time>
      </trkpt>
      <trkpt lat="50.677481" lon="-2.118579">
        <ele>-0.242943</ele>
        <time>2024-06-30T07:43:33.000Z</time>
      </trkpt>
      <trkpt lat="50.676992" lon="-2.117235">
        <ele>0.085924</ele>
        <time>2024-06-30T07:43:44.000Z</time>
      </trkpt>
      <trkpt lat="50.676738" lon="-2.116552">
        <ele>0.258158</ele>
        <time>2024-06-30T07:43:50.000Z</time>
      </trkpt>
      <trkpt lat="50.676385" lon="-2.115549">
        <ele>1.038701</ele>
        <time>2024-06-30T07:43:58.000Z</time>
      </trkpt>
      <trkpt lat="50.675989" lon="-2.114577">
        <ele>2.056872</ele>
        <time>2024-06-30T07:44:06.000Z</time>
      </trkpt>
      <trkpt lat="50.675527" lon="-2.113757">
        <ele>2.924913</ele>
        <time>2024-06-30T07:44:14.000Z</time>
      </trkpt>
      <trkpt lat="50.67511" lon="-2.113186">
        <ele>3.337253</ele>
        <time>2024-06-30T07:44:20.000Z</time>
      </trkpt>
      <trkpt lat="50.674868" lon="-2.112884">
        <ele>3.574987</ele>
        <time>2024-06-30T07:44:23.000Z</time>
      </trkpt>
      <trkpt lat="50.67398" lon="-2.112035">
        <ele>4.214793</ele>
        <time>2024-06-30T07:44:35.000Z</time>
      </trkpt>
      <trkpt lat="50.673905" lon="-2.111956">
        <ele>4.236357</ele>
        <time>2024-06-30T07:44:36.000Z</time>
      </trkpt>
      <trkpt lat="50.673785" lon="-2.111856">
        <ele>4.265443</ele>
        <time>2024-06-30T07:44:38.000Z</time>
      </trkpt>
      <trkpt lat="50.67355" lon="-2.111627">
        <ele>4.32483</ele>
        <time>2024-06-30T07:44:41.000Z</time>
      </trkpt>
      <trkpt lat="50.673207" lon="-2.111308">
        <ele>4.415761</ele>
        <time>2024-06-30T07:44:45.000Z</time>
      </trkpt>
      <trkpt lat="50.672954" lon="-2.11106">
        <ele>4.479225</ele>
        <time>2024-06-30T07:44:48.000Z</time>
      </trkpt>
      <trkpt lat="50.672518" lon="-2.11068">
        <ele>4.737436</ele>
        <time>2024-06-30T07:44:54.000Z</time>
      </trkpt>
      <trkpt lat="50.672371" lon="-2.110562">
        <ele>4.932487</ele>
        <time>2024-06-30T07:44:56.000Z</time>
      </trkpt>
      <trkpt lat="50.672072" lon="-2.110271">
        <ele>5.352005</ele>
        <time>2024-06-30T07:45:00.000Z</time>
      </trkpt>
      <trkpt lat="50.670506" lon="-2.108811">
        <ele>8.09721</ele>
        <time>2024-06-30T07:45:20.000Z</time>
      </trkpt>
      <trkpt lat="50.669824" lon="-2.108116">
        <ele>9.70248</ele>
        <time>2024-06-30T07:45:29.000Z</time>
      </trkpt>
      <trkpt lat="50.669468" lon="-2.107645">
        <ele>10.732853</ele>
        <time>2024-06-30T07:45:34.000Z</time>
      </trkpt>
      <trkpt lat="50.669123" lon="-2.107095">
        <ele>11.965959</ele>
        <time>2024-06-30T07:45:39.000Z</time>
      </trkpt>
      <trkpt lat="50.66888" lon="-2.106602">
        <ele>12.980716</ele>
        <time>2024-06-30T07:45:43.000Z</time>
      </trkpt>
      <trkpt lat="50.668603" lon="-2.105921">
        <ele>14.342547</ele>
        <time>2024-06-30T07:45:49.000Z</time>
      </trkpt>
      <trkpt lat="50.66842" lon="-2.105345">
        <ele>15.143092</ele>
        <time>2024-06-30T07:45:54.000Z</time>
      </trkpt>
      <trkpt lat="50.668259" lon="-2.10468">
        <ele>15.639879</ele>
        <time>2024-06-30T07:45:59.000Z</time>
      </trkpt>
      <trkpt lat="50.668129" lon="-2.10406">
        <ele>16.093283</ele>
        <time>2024-06-30T07:46:04.000Z</time>
      </trkpt>
      <trkpt lat="50.668032" lon="-2.103247">
        <ele>16.679346</ele>
        <time>2024-06-30T07:46:10.000Z</time>
      </trkpt>
      <trkpt lat="50.668044" lon="-2.103094">
        <ele>16.782054</ele>
        <time>2024-06-30T07:46:11.000Z</time>
      </trkpt>
      <trkpt lat="50.668206" lon="-2.102711">
        <ele>17.236206</ele>
        <time>2024-06-30T07:46:14.000Z</time>
      </trkpt>
      <trkpt lat="50.668261" lon="-2.102644">
        <ele>17.388435</ele>
        <time>2024-06-30T07:46:15.000Z</time>
      </trkpt>
      <trkpt lat="50.668298" lon="-2.102518">
        <ele>17.55961</ele>
        <time>2024-06-30T07:46:16.000Z</time>
      </trkpt>
      <trkpt lat="50.66829" lon="-2.102411">
        <ele>17.68764</ele>
        <time>2024-06-30T07:46:17.000Z</time>
      </trkpt>
      <trkpt lat="50.668266" lon="-2.102365">
        <ele>17.762157</ele>
        <time>2024-06-30T07:46:17.000Z</time>
      </trkpt>
      <trkpt lat="50.668256" lon="-2.102026">
        <ele>18.195447</ele>
        <time>2024-06-30T07:46:19.000Z</time>
      </trkpt>
      <trkpt lat="50.668138" lon="-2.10167">
        <ele>18.722537</ele>
        <time>2024-06-30T07:46:22.000Z</time>
      </trkpt>
      <trkpt lat="50.667738" lon="-2.100672">
        <ele>20.245085</ele>
        <time>2024-06-30T07:46:30.000Z</time>
      </trkpt>
      <trkpt lat="50.66755" lon="-2.100198">
        <ele>21.200144</ele>
        <time>2024-06-30T07:46:34.000Z</time>
      </trkpt>
      <trkpt lat="50.66718" lon="-2.099384">
        <ele>23.248208</ele>
        <time>2024-06-30T07:46:41.000Z</time>
      </trkpt>
      <trkpt lat="50.666688" lon="-2.098582">
        <ele>25.559993</ele>
        <time>2024-06-30T07:46:49.000Z</time>
      </trkpt>
      <trkpt lat="50.666231" lon="-2.098034">
        <ele>26.832723</ele>
        <time>2024-06-30T07:46:55.000Z</time>
      </trkpt>
      <trkpt lat="50.665919" lon="-2.097721">
        <ele>27.309133</ele>
        <time>2024-06-30T07:46:59.000Z</time>
      </trkpt>
      <trkpt lat="50.665427" lon="-2.097316">
        <ele>28.026302</ele>
        <time>2024-06-30T07:47:05.000Z</time>
      </trkpt>
      <trkpt lat="50.664271" lon="-2.096637">
        <ele>28.98923</ele>
        <time>2024-06-30T07:47:19.000Z</time>
      </trkpt>
      <trkpt lat="50.663834" lon="-2.096335">
        <ele>29.149999</ele>
        <time>2024-06-30T07:47:24.000Z</time>
      </trkpt>
      <trkpt lat="50.663455" lon="-2.096027">
        <ele>29.291251</ele>
        <time>2024-06-30T07:47:29.000Z</time>
      </trkpt>
      <trkpt lat="50.663022" lon="-2.095548">
        <ele>29.254555</ele>
        <time>2024-06-30T07:47:35.000Z</time>
      </trkpt>
      <trkpt lat="50.662785" lon="-2.095239">
        <ele>29.118026</ele>
        <time>2024-06-30T07:47:38.000Z</time>
      </trkpt>
      <trkpt lat="50.661287" lon="-2.093098">
        <ele>28.083851</ele>
        <time>2024-06-30T07:48:00.000Z</time>
      </trkpt>
      <trkpt lat="50.66049" lon="-2.091962">
        <ele>27.550331</ele>
        <time>2024-06-30T07:48:12.000Z</time>
      </trkpt>
      <trkpt lat="50.660421" lon="-2.091877">
        <ele>27.622016</ele>
        <time>2024-06-30T07:48:13.000Z</time>
      </trkpt>
      <trkpt lat="50.658085" lon="-2.088625">
        <ele>30.648539</ele>
        <time>2024-06-30T07:48:48.000Z</time>
      </trkpt>
      <trkpt lat="50.657684" lon="-2.088082">
        <ele>31.004235</ele>
        <time>2024-06-30T07:48:54.000Z</time>
      </trkpt>
      <trkpt lat="50.657353" lon="-2.087637">
        <ele>31.050215</ele>
        <time>2024-06-30T07:48:59.000Z</time>
      </trkpt>
      <trkpt lat="50.657271" lon="-2.087505">
        <ele>31.061942</ele>
        <time>2024-06-30T07:49:00.000Z</time>
      </trkpt>
      <trkpt lat="50.654173" lon="-2.083299">
        <ele>31.611349</ele>
        <time>2024-06-30T07:49:45.000Z</time>
      </trkpt>
      <trkpt lat="50.652905" lon="-2.081612">
        <ele>32.198591</ele>
        <time>2024-06-30T07:50:03.000Z</time>
      </trkpt>
      <trkpt lat="50.651342" lon="-2.079508">
        <ele>32.298948</ele>
        <time>2024-06-30T07:50:26.000Z</time>
      </trkpt>
      <trkpt lat="50.650709" lon="-2.078626">
        <ele>32.313559</ele>
        <time>2024-06-30T07:50:35.000Z</time>
      </trkpt>
      <trkpt lat="50.650559" lon="-2.078427">
        <ele>32.345628</ele>
        <time>2024-06-30T07:50:37.000Z</time>
      </trkpt>
      <trkpt lat="50.649566" lon="-2.076714">
        <ele>32.629726</ele>
        <time>2024-06-30T07:50:53.000Z</time>
      </trkpt>
      <trkpt lat="50.649417" lon="-2.076435">
        <ele>32.697488</ele>
        <time>2024-06-30T07:50:56.000Z</time>
      </trkpt>
      <trkpt lat="50.648867" lon="-2.075267">
        <ele>32.968804</ele>
        <time>2024-06-30T07:51:06.000Z</time>
      </trkpt>
      <trkpt lat="50.648053" lon="-2.073495">
        <ele>32.635001</ele>
        <time>2024-06-30T07:51:21.000Z</time>
      </trkpt>
      <trkpt lat="50.646437" lon="-2.070058">
        <ele>31.959314</ele>
        <time>2024-06-30T07:51:51.000Z</time>
      </trkpt>
      <trkpt lat="50.646144" lon="-2.069401">
        <ele>31.324175</ele>
        <time>2024-06-30T07:51:57.000Z</time>
      </trkpt>
      <trkpt lat="50.645765" lon="-2.0686">
        <ele>30.537995</ele>
        <time>2024-06-30T07:52:04.000Z</time>
      </trkpt>
      <trkpt lat="50.64537" lon="-2.067711">
        <ele>29.716072</ele>
        <time>2024-06-30T07:52:12.000Z</time>
      </trkpt>
      <trkpt lat="50.644885" lon="-2.06642">
        <ele>28.662931</ele>
        <time>2024-06-30T07:52:23.000Z</time>
      </trkpt>
      <trkpt lat="50.644878" lon="-2.066232">
        <ele>28.535556</ele>
        <time>2024-06-30T07:52:24.000Z</time>
      </trkpt>
      <trkpt lat="50.644882" lon="-2.066077">
        <ele>28.425693</ele>
        <time>2024-06-30T07:52:25.000Z</time>
      </trkpt>
      <trkpt lat="50.644947" lon="-2.065825">
        <ele>28.237865</ele>
        <time>2024-06-30T07:52:27.000Z</time>
      </trkpt>
      <trkpt lat="50.644996" lon="-2.065759">
        <ele>28.157678</ele>
        <time>2024-06-30T07:52:28.000Z</time>
      </trkpt>
      <trkpt lat="50.645047" lon="-2.065592">
        <ele>28.032533</ele>
        <time>2024-06-30T07:52:29.000Z</time>
      </trkpt>
      <trkpt lat="50.645005" lon="-2.065447">
        <ele>27.935092</ele>
        <time>2024-06-30T07:52:30.000Z</time>
      </trkpt>
      <trkpt lat="50.644932" lon="-2.065355">
        <ele>27.949033</ele>
        <time>2024-06-30T07:52:31.000Z</time>
      </trkpt>
      <trkpt lat="50.644829" lon="-2.065349">
        <ele>27.964828</ele>
        <time>2024-06-30T07:52:32.000Z</time>
      </trkpt>
      <trkpt lat="50.644622" lon="-2.0653">
        <ele>27.99417</ele>
        <time>2024-06-30T07:52:34.000Z</time>
      </trkpt>
      <trkpt lat="50.644436" lon="-2.065211">
        <ele>28.02227</ele>
        <time>2024-06-30T07:52:36.000Z</time>
      </trkpt>
      <trkpt lat="50.644411" lon="-2.065177">
        <ele>28.027104</ele>
        <time>2024-06-30T07:52:36.000Z</time>
      </trkpt>
      <trkpt lat="50.644225" lon="-2.064962">
        <ele>28.061135</ele>
        <time>2024-06-30T07:52:39.000Z</time>
      </trkpt>
      <trkpt lat="50.644152" lon="-2.064845">
        <ele>28.076838</ele>
        <time>2024-06-30T07:52:40.000Z</time>
      </trkpt>
      <trkpt lat="50.643715" lon="-2.064036">
        <ele>28.173285</ele>
        <time>2024-06-30T07:52:47.000Z</time>
      </trkpt>
      <trkpt lat="50.643638" lon="-2.063924">
        <ele>28.188491</ele>
        <time>2024-06-30T07:52:48.000Z</time>
      </trkpt>
      <trkpt lat="50.643062" lon="-2.062835">
        <ele>26.268668</ele>
        <time>2024-06-30T07:52:58.000Z</time>
      </trkpt>
      <trkpt lat="50.642723" lon="-2.062168">
        <ele>25.069676</ele>
        <time>2024-06-30T07:53:04.000Z</time>
      </trkpt>
      <trkpt lat="50.642135" lon="-2.060531">
        <ele>21.785061</ele>
        <time>2024-06-30T07:53:17.000Z</time>
      </trkpt>
      <trkpt lat="50.641762" lon="-2.059291">
        <ele>19.17341</ele>
        <time>2024-06-30T07:53:27.000Z</time>
      </trkpt>
      <trkpt lat="50.641688" lon="-2.059036">
        <ele>18.775513</ele>
        <time>2024-06-30T07:53:29.000Z</time>
      </trkpt>
      <trkpt lat="50.641644" lon="-2.058832">
        <ele>18.795674</ele>
        <time>2024-06-30T07:53:31.000Z</time>
      </trkpt>
      <trkpt lat="50.641603" lon="-2.058706">
        <ele>18.808457</ele>
        <time>2024-06-30T07:53:32.000Z</time>
      </trkpt>
      <trkpt lat="50.641541" lon="-2.058547">
        <ele>18.824345</ele>
        <time>2024-06-30T07:53:33.000Z</time>
      </trkpt>
      <trkpt lat="50.641413" lon="-2.05816">
        <ele>18.864078</ele>
        <time>2024-06-30T07:53:36.000Z</time>
      </trkpt>
      <trkpt lat="50.641329" lon="-2.057944">
        <ele>18.885431</ele>
        <time>2024-06-30T07:53:38.000Z</time>
      </trkpt>
      <trkpt lat="50.641465" lon="-2.05779">
        <ele>18.909527</ele>
        <time>2024-06-30T07:53:40.000Z</time>
      </trkpt>
      <trkpt lat="50.641528" lon="-2.057629">
        <ele>18.927066</ele>
        <time>2024-06-30T07:53:41.000Z</time>
      </trkpt>
      <trkpt lat="50.641709" lon="-2.057307">
        <ele>18.965192</ele>
        <time>2024-06-30T07:53:44.000Z</time>
      </trkpt>
      <trkpt lat="50.642257" lon="-2.056745">
        <ele>19.502674</ele>
        <time>2024-06-30T07:53:51.000Z</time>
      </trkpt>
      <trkpt lat="50.642457" lon="-2.056411">
        <ele>20.077077</ele>
        <time>2024-06-30T07:53:54.000Z</time>
      </trkpt>
      <trkpt lat="50.642726" lon="-2.056012">
        <ele>20.826985</ele>
        <time>2024-06-30T07:53:58.000Z</time>
      </trkpt>
      <trkpt lat="50.642765" lon="-2.055893">
        <ele>20.987842</ele>
        <time>2024-06-30T07:53:59.000Z</time>
      </trkpt>
      <trkpt lat="50.642897" lon="-2.055184">
        <ele>21.906289</ele>
        <time>2024-06-30T07:54:04.000Z</time>
      </trkpt>
      <trkpt lat="50.642971" lon="-2.054925">
        <ele>22.276901</ele>
        <time>2024-06-30T07:54:06.000Z</time>
      </trkpt>
      <trkpt lat="50.643086" lon="-2.054681">
        <ele>22.617025</ele>
        <time>2024-06-30T07:54:08.000Z</time>
      </trkpt>
      <trkpt lat="50.643232" lon="-2.054511">
        <ele>22.771485</ele>
        <time>2024-06-30T07:54:10.000Z</time>
      </trkpt>
      <trkpt lat="50.643436" lon="-2.054337">
        <ele>22.972447</ele>
        <time>2024-06-30T07:54:13.000Z</time>
      </trkpt>
      <trkpt lat="50.643852" lon="-2.054187">
        <ele>23.335926</ele>
        <time>2024-06-30T07:54:18.000Z</time>
      </trkpt>
      <trkpt lat="50.644357" lon="-2.054055">
        <ele>23.771375</ele>
        <time>2024-06-30T07:54:24.000Z</time>
      </trkpt>
      <trkpt lat="50.644418" lon="-2.054032">
        <ele>23.829552</ele>
        <time>2024-06-30T07:54:25.000Z</time>
      </trkpt>
      <trkpt lat="50.644517" lon="-2.053872">
        <ele>23.954501</ele>
        <time>2024-06-30T07:54:27.000Z</time>
      </trkpt>
      <trkpt lat="50.644575" lon="-2.053633">
        <ele>24.094682</ele>
        <time>2024-06-30T07:54:29.000Z</time>
      </trkpt>
      <trkpt lat="50.644587" lon="-2.052857">
        <ele>24.693072</ele>
        <time>2024-06-30T07:54:34.000Z</time>
      </trkpt>
      <trkpt lat="50.644601" lon="-2.052636">
        <ele>24.872668</ele>
        <time>2024-06-30T07:54:36.000Z</time>
      </trkpt>
      <trkpt lat="50.644685" lon="-2.052219">
        <ele>25.233944</ele>
        <time>2024-06-30T07:54:39.000Z</time>
      </trkpt>
      <trkpt lat="50.645097" lon="-2.050827">
        <ele>26.538407</ele>
        <time>2024-06-30T07:54:50.000Z</time>
      </trkpt>
      <trkpt lat="50.645196" lon="-2.05045">
        <ele>27.183955</ele>
        <time>2024-06-30T07:54:53.000Z</time>
      </trkpt>
      <trkpt lat="50.645247" lon="-2.050062">
        <ele>27.853552</ele>
        <time>2024-06-30T07:54:56.000Z</time>
      </trkpt>
      <trkpt lat="50.645289" lon="-2.048581">
        <ele>30.333691</ele>
        <time>2024-06-30T07:55:06.000Z</time>
      </trkpt>
      <trkpt lat="50.645299" lon="-2.046096">
        <ele>34.058078</ele>
        <time>2024-06-30T07:55:24.000Z</time>
      </trkpt>
      <trkpt lat="50.645278" lon="-2.045531">
        <ele>34.860684</ele>
        <time>2024-06-30T07:55:28.000Z</time>
      </trkpt>
      <trkpt lat="50.645256" lon="-2.045309">
        <ele>35.191389</ele>
        <time>2024-06-30T07:55:30.000Z</time>
      </trkpt>
      <trkpt lat="50.64514" lon="-2.044903">
        <ele>35.438429</ele>
        <time>2024-06-30T07:55:33.000Z</time>
      </trkpt>
      <trkpt lat="50.644782" lon="-2.043893">
        <ele>35.929459</ele>
        <time>2024-06-30T07:55:41.000Z</time>
      </trkpt>
      <trkpt lat="50.644698" lon="-2.04358">
        <ele>36.069653</ele>
        <time>2024-06-30T07:55:43.000Z</time>
      </trkpt>
      <trkpt lat="50.644553" lon="-2.042346">
        <ele>36.541597</ele>
        <time>2024-06-30T07:55:52.000Z</time>
      </trkpt>
      <trkpt lat="50.644537" lon="-2.040697">
        <ele>36.94102</ele>
        <time>2024-06-30T07:56:04.000Z</time>
      </trkpt>
      <trkpt lat="50.644535" lon="-2.040095">
        <ele>37.090395</ele>
        <time>2024-06-30T07:56:08.000Z</time>
      </trkpt>
      <trkpt lat="50.644462" lon="-2.039234">
        <ele>37.779837</ele>
        <time>2024-06-30T07:56:14.000Z</time>
      </trkpt>
      <trkpt lat="50.644397" lon="-2.038137">
        <ele>38.940377</ele>
        <time>2024-06-30T07:56:22.000Z</time>
      </trkpt>
      <trkpt lat="50.644352" lon="-2.037446">
        <ele>39.67547</ele>
        <time>2024-06-30T07:56:27.000Z</time>
      </trkpt>
      <trkpt lat="50.644266" lon="-2.036923">
        <ele>40.401678</ele>
        <time>2024-06-30T07:56:31.000Z</time>
      </trkpt>
      <trkpt lat="50.644218" lon="-2.036768">
        <ele>40.869546</ele>
        <time>2024-06-30T07:56:32.000Z</time>
      </trkpt>
      <trkpt lat="50.644139" lon="-2.036647">
        <ele>41.316144</ele>
        <time>2024-06-30T07:56:33.000Z</time>
      </trkpt>
      <trkpt lat="50.643678" lon="-2.036178">
        <ele>43.690999</ele>
        <time>2024-06-30T07:56:39.000Z</time>
      </trkpt>
      <trkpt lat="50.643583" lon="-2.036033">
        <ele>44.288124</ele>
        <time>2024-06-30T07:56:40.000Z</time>
      </trkpt>
      <trkpt lat="50.643265" lon="-2.03505">
        <ele>47.270874</ele>
        <time>2024-06-30T07:56:48.000Z</time>
      </trkpt>
      <trkpt lat="50.643114" lon="-2.0343">
        <ele>48.612444</ele>
        <time>2024-06-30T07:56:54.000Z</time>
      </trkpt>
      <trkpt lat="50.643022" lon="-2.034002">
        <ele>49.037899</ele>
        <time>2024-06-30T07:56:56.000Z</time>
      </trkpt>
      <trkpt lat="50.642901" lon="-2.033705">
        <ele>49.523759</ele>
        <time>2024-06-30T07:56:58.000Z</time>
      </trkpt>
      <trkpt lat="50.642618" lon="-2.033193">
        <ele>50.419416</ele>
        <time>2024-06-30T07:57:03.000Z</time>
      </trkpt>
      <trkpt lat="50.642561" lon="-2.032895">
        <ele>50.839411</ele>
        <time>2024-06-30T07:57:05.000Z</time>
      </trkpt>
      <trkpt lat="50.642557" lon="-2.032474">
        <ele>51.389258</ele>
        <time>2024-06-30T07:57:08.000Z</time>
      </trkpt>
      <trkpt lat="50.64264" lon="-2.031648">
        <ele>51.07731</ele>
        <time>2024-06-30T07:57:14.000Z</time>
      </trkpt>
      <trkpt lat="50.642856" lon="-2.030538">
        <ele>50.150999</ele>
        <time>2024-06-30T07:57:22.000Z</time>
      </trkpt>
      <trkpt lat="50.642895" lon="-2.030158">
        <ele>49.849091</ele>
        <time>2024-06-30T07:57:25.000Z</time>
      </trkpt>
      <trkpt lat="50.64288" lon="-2.029765">
        <ele>49.535429</ele>
        <time>2024-06-30T07:57:28.000Z</time>
      </trkpt>
      <trkpt lat="50.642772" lon="-2.028523">
        <ele>50.386757</ele>
        <time>2024-06-30T07:57:37.000Z</time>
      </trkpt>
      <trkpt lat="50.642688" lon="-2.028149">
        <ele>50.780302</ele>
        <time>2024-06-30T07:57:40.000Z</time>
      </trkpt>
      <trkpt lat="50.642465" lon="-2.027399">
        <ele>51.618953</ele>
        <time>2024-06-30T07:57:46.000Z</time>
      </trkpt>
      <trkpt lat="50.642383" lon="-2.027067">
        <ele>51.980261</ele>
        <time>2024-06-30T07:57:49.000Z</time>
      </trkpt>
      <trkpt lat="50.642221" lon="-2.025851">
        <ele>54.829663</ele>
        <time>2024-06-30T07:57:58.000Z</time>
      </trkpt>
      <trkpt lat="50.642064" lon="-2.024272">
        <ele>58.920873</ele>
        <time>2024-06-30T07:58:09.000Z</time>
      </trkpt>
      <trkpt lat="50.641671" lon="-2.022036">
        <ele>66.535949</ele>
        <time>2024-06-30T07:58:25.000Z</time>
      </trkpt>
      <trkpt lat="50.641562" lon="-2.021708">
        <ele>67.792903</ele>
        <time>2024-06-30T07:58:28.000Z</time>
      </trkpt>
      <trkpt lat="50.641111" lon="-2.020988">
        <ele>70.783526</ele>
        <time>2024-06-30T07:58:35.000Z</time>
      </trkpt>
      <trkpt lat="50.640871" lon="-2.020353">
        <ele>72.80294</ele>
        <time>2024-06-30T07:58:40.000Z</time>
      </trkpt>
      <trkpt lat="50.640787" lon="-2.019863">
        <ele>74.208273</ele>
        <time>2024-06-30T07:58:44.000Z</time>
      </trkpt>
      <trkpt lat="50.640781" lon="-2.019551">
        <ele>75.066664</ele>
        <time>2024-06-30T07:58:46.000Z</time>
      </trkpt>
      <trkpt lat="50.640773" lon="-2.019355">
        <ele>75.594887</ele>
        <time>2024-06-30T07:58:47.000Z</time>
      </trkpt>
      <trkpt lat="50.640696" lon="-2.01871">
        <ele>76.330953</ele>
        <time>2024-06-30T07:58:52.000Z</time>
      </trkpt>
      <trkpt lat="50.640581" lon="-2.018209">
        <ele>75.259159</ele>
        <time>2024-06-30T07:58:56.000Z</time>
      </trkpt>
      <trkpt lat="50.639986" lon="-2.016733">
        <ele>71.764033</ele>
        <time>2024-06-30T07:59:08.000Z</time>
      </trkpt>
      <trkpt lat="50.639869" lon="-2.016407">
        <ele>71.079838</ele>
        <time>2024-06-30T07:59:11.000Z</time>
      </trkpt>
      <trkpt lat="50.639568" lon="-2.015356">
        <ele>70.236172</ele>
        <time>2024-06-30T07:59:19.000Z</time>
      </trkpt>
      <trkpt lat="50.639395" lon="-2.014609">
        <ele>69.648487</ele>
        <time>2024-06-30T07:59:25.000Z</time>
      </trkpt>
      <trkpt lat="50.639334" lon="-2.014275">
        <ele>69.39394</ele>
        <time>2024-06-30T07:59:27.000Z</time>
      </trkpt>
      <trkpt lat="50.639179" lon="-2.013106">
        <ele>70.428398</ele>
        <time>2024-06-30T07:59:35.000Z</time>
      </trkpt>
      <trkpt lat="50.639129" lon="-2.012523">
        <ele>71.605186</ele>
        <time>2024-06-30T07:59:39.000Z</time>
      </trkpt>
      <trkpt lat="50.639093" lon="-2.011382">
        <ele>73.941736</ele>
        <time>2024-06-30T07:59:47.000Z</time>
      </trkpt>
      <trkpt lat="50.6391" lon="-2.010876">
        <ele>75.061927</ele>
        <time>2024-06-30T07:59:51.000Z</time>
      </trkpt>
      <trkpt lat="50.639055" lon="-2.010569">
        <ele>75.975674</ele>
        <time>2024-06-30T07:59:53.000Z</time>
      </trkpt>
      <trkpt lat="50.638553" lon="-2.008508">
        <ele>82.410927</ele>
        <time>2024-06-30T08:00:09.000Z</time>
      </trkpt>
      <trkpt lat="50.638328" lon="-2.007899">
        <ele>83.33283</ele>
        <time>2024-06-30T08:00:14.000Z</time>
      </trkpt>
      <trkpt lat="50.638001" lon="-2.007479">
        <ele>83.681656</ele>
        <time>2024-06-30T08:00:19.000Z</time>
      </trkpt>
      <trkpt lat="50.637811" lon="-2.007212">
        <ele>83.891945</ele>
        <time>2024-06-30T08:00:22.000Z</time>
      </trkpt>
      <trkpt lat="50.637625" lon="-2.006841">
        <ele>84.131698</ele>
        <time>2024-06-30T08:00:25.000Z</time>
      </trkpt>
      <trkpt lat="50.637532" lon="-2.006661">
        <ele>84.258305</ele>
        <time>2024-06-30T08:00:27.000Z</time>
      </trkpt>
      <trkpt lat="50.637447" lon="-2.006436">
        <ele>84.398712</ele>
        <time>2024-06-30T08:00:29.000Z</time>
      </trkpt>
      <trkpt lat="50.637293" lon="-2.005986">
        <ele>83.93575</ele>
        <time>2024-06-30T08:00:33.000Z</time>
      </trkpt>
      <trkpt lat="50.637248" lon="-2.005638">
        <ele>82.685234</ele>
        <time>2024-06-30T08:00:36.000Z</time>
      </trkpt>
      <trkpt lat="50.63723" lon="-2.004814">
        <ele>79.87229</ele>
        <time>2024-06-30T08:00:42.000Z</time>
      </trkpt>
      <trkpt lat="50.637252" lon="-2.003162">
        <ele>74.914536</ele>
        <time>2024-06-30T08:00:54.000Z</time>
      </trkpt>
      <trkpt lat="50.637179" lon="-2.002236">
        <ele>75.103628</ele>
        <time>2024-06-30T08:01:01.000Z</time>
      </trkpt>
      <trkpt lat="50.637211" lon="-2.000569">
        <ele>75.433937</ele>
        <time>2024-06-30T08:01:13.000Z</time>
      </trkpt>
      <trkpt lat="50.637184" lon="-2.000223">
        <ele>76.412406</ele>
        <time>2024-06-30T08:01:15.000Z</time>
      </trkpt>
      <trkpt lat="50.636934" lon="-1.999279">
        <ele>79.805366</ele>
        <time>2024-06-30T08:01:22.000Z</time>
      </trkpt>
      <trkpt lat="50.636682" lon="-1.997354">
        <ele>86.711671</ele>
        <time>2024-06-30T08:01:36.000Z</time>
      </trkpt>
      <trkpt lat="50.636577" lon="-1.996936">
        <ele>88.666948</ele>
        <time>2024-06-30T08:01:39.000Z</time>
      </trkpt>
      <trkpt lat="50.636511" lon="-1.996681">
        <ele>89.85789</ele>
        <time>2024-06-30T08:01:41.000Z</time>
      </trkpt>
      <trkpt lat="50.636125" lon="-1.995988">
        <ele>93.904812</ele>
        <time>2024-06-30T08:01:48.000Z</time>
      </trkpt>
      <trkpt lat="50.636042" lon="-1.995789">
        <ele>94.85456</ele>
        <time>2024-06-30T08:01:50.000Z</time>
      </trkpt>
      <trkpt lat="50.635952" lon="-1.995374">
        <ele>96.8246</ele>
        <time>2024-06-30T08:01:53.000Z</time>
      </trkpt>
      <trkpt lat="50.635885" lon="-1.99465">
        <ele>99.506332</ele>
        <time>2024-06-30T08:01:58.000Z</time>
      </trkpt>
      <trkpt lat="50.635881" lon="-1.994407">
        <ele>100.428702</ele>
        <time>2024-06-30T08:02:00.000Z</time>
      </trkpt>
      <trkpt lat="50.635933" lon="-1.994028">
        <ele>101.879894</ele>
        <time>2024-06-30T08:02:03.000Z</time>
      </trkpt>
      <trkpt lat="50.636127" lon="-1.993502">
        <ele>104.076447</ele>
        <time>2024-06-30T08:02:07.000Z</time>
      </trkpt>
      <trkpt lat="50.636206" lon="-1.993154">
        <ele>105.474387</ele>
        <time>2024-06-30T08:02:10.000Z</time>
      </trkpt>
      <trkpt lat="50.636303" lon="-1.992036">
        <ele>108.865963</ele>
        <time>2024-06-30T08:02:18.000Z</time>
      </trkpt>
      <trkpt lat="50.636323" lon="-1.991515">
        <ele>110.129223</ele>
        <time>2024-06-30T08:02:22.000Z</time>
      </trkpt>
      <trkpt lat="50.63621" lon="-1.990224">
        <ele>113.200511</ele>
        <time>2024-06-30T08:02:31.000Z</time>
      </trkpt>
      <trkpt lat="50.63615" lon="-1.989951">
        <ele>113.918884</ele>
        <time>2024-06-30T08:02:33.000Z</time>
      </trkpt>
      <trkpt lat="50.635973" lon="-1.989537">
        <ele>114.518426</ele>
        <time>2024-06-30T08:02:37.000Z</time>
      </trkpt>
      <trkpt lat="50.635843" lon="-1.98903">
        <ele>114.906077</ele>
        <time>2024-06-30T08:02:41.000Z</time>
      </trkpt>
      <trkpt lat="50.635762" lon="-1.988529">
        <ele>115.252957</ele>
        <time>2024-06-30T08:02:45.000Z</time>
      </trkpt>
      <trkpt lat="50.635708" lon="-1.987828">
        <ele>115.756981</ele>
        <time>2024-06-30T08:02:50.000Z</time>
      </trkpt>
      <trkpt lat="50.635623" lon="-1.98661">
        <ele>115.723259</ele>
        <time>2024-06-30T08:02:59.000Z</time>
      </trkpt>
      <trkpt lat="50.635531" lon="-1.985693">
        <ele>114.763088</ele>
        <time>2024-06-30T08:03:06.000Z</time>
      </trkpt>
      <trkpt lat="50.635536" lon="-1.985429">
        <ele>114.474849</ele>
        <time>2024-06-30T08:03:08.000Z</time>
      </trkpt>
      <trkpt lat="50.63585" lon="-1.983792">
        <ele>112.956288</ele>
        <time>2024-06-30T08:03:20.000Z</time>
      </trkpt>
      <trkpt lat="50.636145" lon="-1.982704">
        <ele>112.223849</ele>
        <time>2024-06-30T08:03:28.000Z</time>
      </trkpt>
      <trkpt lat="50.636191" lon="-1.98247">
        <ele>112.079928</ele>
        <time>2024-06-30T08:03:30.000Z</time>
      </trkpt>
      <trkpt lat="50.63625" lon="-1.982208">
        <ele>111.902022</ele>
        <time>2024-06-30T08:03:32.000Z</time>
      </trkpt>
      <trkpt lat="50.636526" lon="-1.981371">
        <ele>111.977762</ele>
        <time>2024-06-30T08:03:39.000Z</time>
      </trkpt>
      <trkpt lat="50.636589" lon="-1.981031">
        <ele>112.342621</ele>
        <time>2024-06-30T08:03:41.000Z</time>
      </trkpt>
      <trkpt lat="50.636851" lon="-1.979359">
        <ele>114.125479</ele>
        <time>2024-06-30T08:03:53.000Z</time>
      </trkpt>
      <trkpt lat="50.636829" lon="-1.978715">
        <ele>114.744745</ele>
        <time>2024-06-30T08:03:58.000Z</time>
      </trkpt>
      <trkpt lat="50.636693" lon="-1.977754">
        <ele>115.572913</ele>
        <time>2024-06-30T08:04:05.000Z</time>
      </trkpt>
      <trkpt lat="50.636559" lon="-1.977096">
        <ele>116.154821</ele>
        <time>2024-06-30T08:04:10.000Z</time>
      </trkpt>
      <trkpt lat="50.636432" lon="-1.976857">
        <ele>116.422347</ele>
        <time>2024-06-30T08:04:12.000Z</time>
      </trkpt>
      <trkpt lat="50.63633" lon="-1.976559">
        <ele>116.703148</ele>
        <time>2024-06-30T08:04:14.000Z</time>
      </trkpt>
      <trkpt lat="50.636273" lon="-1.976143">
        <ele>116.775166</ele>
        <time>2024-06-30T08:04:17.000Z</time>
      </trkpt>
      <trkpt lat="50.636229" lon="-1.975639">
        <ele>116.399389</ele>
        <time>2024-06-30T08:04:21.000Z</time>
      </trkpt>
      <trkpt lat="50.63612" lon="-1.973608">
        <ele>114.939948</ele>
        <time>2024-06-30T08:04:35.000Z</time>
      </trkpt>
      <trkpt lat="50.636077" lon="-1.972917">
        <ele>112.493888</ele>
        <time>2024-06-30T08:04:40.000Z</time>
      </trkpt>
      <trkpt lat="50.636083" lon="-1.972547">
        <ele>110.907648</ele>
        <time>2024-06-30T08:04:43.000Z</time>
      </trkpt>
      <trkpt lat="50.636118" lon="-1.97224">
        <ele>109.703617</ele>
        <time>2024-06-30T08:04:45.000Z</time>
      </trkpt>
      <trkpt lat="50.636309" lon="-1.971407">
        <ele>106.080489</ele>
        <time>2024-06-30T08:04:51.000Z</time>
      </trkpt>
      <trkpt lat="50.636668" lon="-1.970207">
        <ele>99.444801</ele>
        <time>2024-06-30T08:05:00.000Z</time>
      </trkpt>
      <trkpt lat="50.636778" lon="-1.969747">
        <ele>96.648134</ele>
        <time>2024-06-30T08:05:03.000Z</time>
      </trkpt>
      <trkpt lat="50.637024" lon="-1.968518">
        <ele>88.956734</ele>
        <time>2024-06-30T08:05:12.000Z</time>
      </trkpt>
      <trkpt lat="50.637122" lon="-1.968053">
        <ele>86.457088</ele>
        <time>2024-06-30T08:05:15.000Z</time>
      </trkpt>
      <trkpt lat="50.63729" lon="-1.966991">
        <ele>84.276732</ele>
        <time>2024-06-30T08:05:23.000Z</time>
      </trkpt>
      <trkpt lat="50.637311" lon="-1.966895">
        <ele>84.067462</ele>
        <time>2024-06-30T08:05:24.000Z</time>
      </trkpt>
      <trkpt lat="50.637352" lon="-1.966776">
        <ele>83.793594</ele>
        <time>2024-06-30T08:05:25.000Z</time>
      </trkpt>
      <trkpt lat="50.637318" lon="-1.966887">
        <ele>83.519731</ele>
        <time>2024-06-30T08:05:26.000Z</time>
      </trkpt>
      <trkpt lat="50.637106" lon="-1.966816">
        <ele>82.836898</ele>
        <time>2024-06-30T08:05:28.000Z</time>
      </trkpt>
      <trkpt lat="50.637037" lon="-1.966975">
        <ele>82.459039</ele>
        <time>2024-06-30T08:05:29.000Z</time>
      </trkpt>
      <trkpt lat="50.636362" lon="-1.968617">
        <ele>84.246843</ele>
        <time>2024-06-30T08:05:43.000Z</time>
      </trkpt>
      <trkpt lat="50.636254" lon="-1.968788">
        <ele>84.870122</ele>
        <time>2024-06-30T08:05:45.000Z</time>
      </trkpt>
      <trkpt lat="50.635778" lon="-1.969378">
        <ele>87.46919</ele>
        <time>2024-06-30T08:05:52.000Z</time>
      </trkpt>
      <trkpt lat="50.635333" lon="-1.96985">
        <ele>89.42712</ele>
        <time>2024-06-30T08:05:58.000Z</time>
      </trkpt>
      <trkpt lat="50.635126" lon="-1.970151">
        <ele>90.359261</ele>
        <time>2024-06-30T08:06:01.000Z</time>
      </trkpt>
      <trkpt lat="50.63504" lon="-1.970341">
        <ele>90.823723</ele>
        <time>2024-06-30T08:06:03.000Z</time>
      </trkpt>
      <trkpt lat="50.634928" lon="-1.97064">
        <ele>91.511108</ele>
        <time>2024-06-30T08:06:05.000Z</time>
      </trkpt>
      <trkpt lat="50.634558" lon="-1.971853">
        <ele>94.231984</ele>
        <time>2024-06-30T08:06:14.000Z</time>
      </trkpt>
      <trkpt lat="50.634451" lon="-1.972371">
        <ele>93.247973</ele>
        <time>2024-06-30T08:06:18.000Z</time>
      </trkpt>
      <trkpt lat="50.634369" lon="-1.972864">
        <ele>92.159017</ele>
        <time>2024-06-30T08:06:22.000Z</time>
      </trkpt>
      <trkpt lat="50.634323" lon="-1.973676">
        <ele>90.380885</ele>
        <time>2024-06-30T08:06:28.000Z</time>
      </trkpt>
      <trkpt lat="50.634151" lon="-1.974445">
        <ele>88.578082</ele>
        <time>2024-06-30T08:06:34.000Z</time>
      </trkpt>
      <trkpt lat="50.634051" lon="-1.974815">
        <ele>87.237324</ele>
        <time>2024-06-30T08:06:37.000Z</time>
      </trkpt>
      <trkpt lat="50.633802" lon="-1.975354">
        <ele>84.268808</ele>
        <time>2024-06-30T08:06:42.000Z</time>
      </trkpt>
      <trkpt lat="50.633674" lon="-1.975541">
        <ele>82.997459</ele>
        <time>2024-06-30T08:06:44.000Z</time>
      </trkpt>
      <trkpt lat="50.633322" lon="-1.975878">
        <ele>80.131339</ele>
        <time>2024-06-30T08:06:49.000Z</time>
      </trkpt>
      <trkpt lat="50.63322" lon="-1.975954">
        <ele>79.278924</ele>
        <time>2024-06-30T08:06:50.000Z</time>
      </trkpt>
      <trkpt lat="50.632845" lon="-1.976043">
        <ele>76.65036</ele>
        <time>2024-06-30T08:06:54.000Z</time>
      </trkpt>
      <trkpt lat="50.632339" lon="-1.976064">
        <ele>73.334198</ele>
        <time>2024-06-30T08:07:00.000Z</time>
      </trkpt>
      <trkpt lat="50.632127" lon="-1.976049">
        <ele>71.987318</ele>
        <time>2024-06-30T08:07:02.000Z</time>
      </trkpt>
      <trkpt lat="50.631252" lon="-1.975845">
        <ele>66.443656</ele>
        <time>2024-06-30T08:07:12.000Z</time>
      </trkpt>
      <trkpt lat="50.630661" lon="-1.975748">
        <ele>63.711757</ele>
        <time>2024-06-30T08:07:19.000Z</time>
      </trkpt>
      <trkpt lat="50.630532" lon="-1.975703">
        <ele>63.495639</ele>
        <time>2024-06-30T08:07:20.000Z</time>
      </trkpt>
      <trkpt lat="50.630181" lon="-1.975476">
        <ele>62.843298</ele>
        <time>2024-06-30T08:07:24.000Z</time>
      </trkpt>
      <trkpt lat="50.629854" lon="-1.97519">
        <ele>62.192528</ele>
        <time>2024-06-30T08:07:28.000Z</time>
      </trkpt>
      <trkpt lat="50.629746" lon="-1.975068">
        <ele>61.967291</ele>
        <time>2024-06-30T08:07:29.000Z</time>
      </trkpt>
      <trkpt lat="50.629611" lon="-1.974842">
        <ele>61.632943</ele>
        <time>2024-06-30T08:07:31.000Z</time>
      </trkpt>
      <trkpt lat="50.629249" lon="-1.973949">
        <ele>59.197345</ele>
        <time>2024-06-30T08:07:38.000Z</time>
      </trkpt>
      <trkpt lat="50.629086" lon="-1.973624">
        <ele>57.703702</ele>
        <time>2024-06-30T08:07:41.000Z</time>
      </trkpt>
      <trkpt lat="50.628946" lon="-1.973317">
        <ele>56.279115</ele>
        <time>2024-06-30T08:07:44.000Z</time>
      </trkpt>
      <trkpt lat="50.628788" lon="-1.972976">
        <ele>54.706503</ele>
        <time>2024-06-30T08:07:47.000Z</time>
      </trkpt>
      <trkpt lat="50.628622" lon="-1.972602">
        <ele>52.986322</ele>
        <time>2024-06-30T08:07:50.000Z</time>
      </trkpt>
      <trkpt lat="50.628398" lon="-1.972115">
        <ele>50.754822</ele>
        <time>2024-06-30T08:07:54.000Z</time>
      </trkpt>
      <trkpt lat="50.628267" lon="-1.97184">
        <ele>49.474545</ele>
        <time>2024-06-30T08:07:56.000Z</time>
      </trkpt>
      <trkpt lat="50.628043" lon="-1.971319">
        <ele>47.171272</ele>
        <time>2024-06-30T08:08:00.000Z</time>
      </trkpt>
      <trkpt lat="50.627789" lon="-1.970855">
        <ele>44.907197</ele>
        <time>2024-06-30T08:08:04.000Z</time>
      </trkpt>
      <trkpt lat="50.627422" lon="-1.970302">
        <ele>41.972936</ele>
        <time>2024-06-30T08:08:10.000Z</time>
      </trkpt>
      <trkpt lat="50.627377" lon="-1.970232">
        <ele>41.649498</ele>
        <time>2024-06-30T08:08:11.000Z</time>
      </trkpt>
      <trkpt lat="50.627065" lon="-1.969849">
        <ele>39.621991</ele>
        <time>2024-06-30T08:08:15.000Z</time>
      </trkpt>
      <trkpt lat="50.626715" lon="-1.969382">
        <ele>38.222007</ele>
        <time>2024-06-30T08:08:20.000Z</time>
      </trkpt>
      <trkpt lat="50.626583" lon="-1.969183">
        <ele>37.685091</ele>
        <time>2024-06-30T08:08:22.000Z</time>
      </trkpt>
      <trkpt lat="50.626424" lon="-1.968847">
        <ele>36.900218</ele>
        <time>2024-06-30T08:08:25.000Z</time>
      </trkpt>
      <trkpt lat="50.626029" lon="-1.967437">
        <ele>33.969826</ele>
        <time>2024-06-30T08:08:36.000Z</time>
      </trkpt>
      <trkpt lat="50.625744" lon="-1.966636">
        <ele>32.414186</ele>
        <time>2024-06-30T08:08:42.000Z</time>
      </trkpt>
      <trkpt lat="50.625688" lon="-1.966503">
        <ele>32.169091</ele>
        <time>2024-06-30T08:08:43.000Z</time>
      </trkpt>
      <trkpt lat="50.625494" lon="-1.966005">
        <ele>31.164982</ele>
        <time>2024-06-30T08:08:47.000Z</time>
      </trkpt>
      <trkpt lat="50.625369" lon="-1.965797">
        <ele>30.685463</ele>
        <time>2024-06-30T08:08:49.000Z</time>
      </trkpt>
      <trkpt lat="50.625015" lon="-1.965602">
        <ele>29.709401</ele>
        <time>2024-06-30T08:08:53.000Z</time>
      </trkpt>
      <trkpt lat="50.624846" lon="-1.965487">
        <ele>29.272668</ele>
        <time>2024-06-30T08:08:55.000Z</time>
      </trkpt>
      <trkpt lat="50.624497" lon="-1.965172">
        <ele>28.302482</ele>
        <time>2024-06-30T08:08:59.000Z</time>
      </trkpt>
      <trkpt lat="50.623151" lon="-1.963708">
        <ele>25.025734</ele>
        <time>2024-06-30T08:09:17.000Z</time>
      </trkpt>
      <trkpt lat="50.623088" lon="-1.963659">
        <ele>24.957192</ele>
        <time>2024-06-30T08:09:18.000Z</time>
      </trkpt>
      <trkpt lat="50.622988" lon="-1.96388">
        <ele>24.783645</ele>
        <time>2024-06-30T08:09:20.000Z</time>
      </trkpt>
      <trkpt lat="50.622481" lon="-1.964781">
        <ele>24.070607</ele>
        <time>2024-06-30T08:09:28.000Z</time>
      </trkpt>
      <trkpt lat="50.622451" lon="-1.964861">
        <ele>24.008285</ele>
        <time>2024-06-30T08:09:29.000Z</time>
      </trkpt>
      <trkpt lat="50.622414" lon="-1.965007">
        <ele>23.92053</ele>
        <time>2024-06-30T08:09:30.000Z</time>
      </trkpt>
      <trkpt lat="50.622331" lon="-1.965512">
        <ele>23.724207</ele>
        <time>2024-06-30T08:09:34.000Z</time>
      </trkpt>
      <trkpt lat="50.622331" lon="-1.965887">
        <ele>23.683076</ele>
        <time>2024-06-30T08:09:37.000Z</time>
      </trkpt>
      <trkpt lat="50.622397" lon="-1.966367">
        <ele>23.626713</ele>
        <time>2024-06-30T08:09:40.000Z</time>
      </trkpt>
      <trkpt lat="50.622384" lon="-1.966636">
        <ele>23.596654</ele>
        <time>2024-06-30T08:09:42.000Z</time>
      </trkpt>
      <trkpt lat="50.622292" lon="-1.966637">
        <ele>23.581996</ele>
        <time>2024-06-30T08:09:43.000Z</time>
      </trkpt>
      <trkpt lat="50.622203" lon="-1.966596">
        <ele>23.562171</ele>
        <time>2024-06-30T08:09:44.000Z</time>
      </trkpt>
      <trkpt lat="50.621639" lon="-1.966182">
        <ele>23.454365</ele>
        <time>2024-06-30T08:09:51.000Z</time>
      </trkpt>
      <trkpt lat="50.621356" lon="-1.965963">
        <ele>23.48837</ele>
        <time>2024-06-30T08:09:55.000Z</time>
      </trkpt>
      <trkpt lat="50.620936" lon="-1.96563">
        <ele>23.629024</ele>
        <time>2024-06-30T08:10:00.000Z</time>
      </trkpt>
      <trkpt lat="50.620803" lon="-1.965499">
        <ele>23.675289</ele>
        <time>2024-06-30T08:10:02.000Z</time>
      </trkpt>
      <trkpt lat="50.62055" lon="-1.965274">
        <ele>23.758978</ele>
        <time>2024-06-30T08:10:05.000Z</time>
      </trkpt>
      <trkpt lat="50.620256" lon="-1.965026">
        <ele>23.863103</ele>
        <time>2024-06-30T08:10:09.000Z</time>
      </trkpt>
      <trkpt lat="50.620208" lon="-1.96498">
        <ele>23.879372</ele>
        <time>2024-06-30T08:10:10.000Z</time>
      </trkpt>
      <trkpt lat="50.620003" lon="-1.964791">
        <ele>23.950744</ele>
        <time>2024-06-30T08:10:13.000Z</time>
      </trkpt>
      <trkpt lat="50.619895" lon="-1.964697">
        <ele>23.937927</ele>
        <time>2024-06-30T08:10:14.000Z</time>
      </trkpt>
      <trkpt lat="50.619035" lon="-1.963927">
        <ele>23.487503</ele>
        <time>2024-06-30T08:10:25.000Z</time>
      </trkpt>
      <trkpt lat="50.618414" lon="-1.963374">
        <ele>23.163233</ele>
        <time>2024-06-30T08:10:33.000Z</time>
      </trkpt>
      <trkpt lat="50.61841" lon="-1.963349">
        <ele>23.155131</ele>
        <time>2024-06-30T08:10:33.000Z</time>
      </trkpt>
      <trkpt lat="50.61802" lon="-1.962926">
        <ele>21.912328</ele>
        <time>2024-06-30T08:10:38.000Z</time>
      </trkpt>
      <trkpt lat="50.617853" lon="-1.962768">
        <ele>21.406096</ele>
        <time>2024-06-30T08:10:40.000Z</time>
      </trkpt>
      <trkpt lat="50.617325" lon="-1.962386">
        <ele>19.873896</ele>
        <time>2024-06-30T08:10:46.000Z</time>
      </trkpt>
      <trkpt lat="50.616793" lon="-1.962135">
        <ele>18.373277</ele>
        <time>2024-06-30T08:10:52.000Z</time>
      </trkpt>
      <trkpt lat="50.616547" lon="-1.962069">
        <ele>18.109654</ele>
        <time>2024-06-30T08:10:55.000Z</time>
      </trkpt>
      <trkpt lat="50.616219" lon="-1.961999">
        <ele>17.787963</ele>
        <time>2024-06-30T08:10:59.000Z</time>
      </trkpt>
      <trkpt lat="50.615769" lon="-1.961877">
        <ele>17.345237</ele>
        <time>2024-06-30T08:11:04.000Z</time>
      </trkpt>
      <trkpt lat="50.615599" lon="-1.961861">
        <ele>17.178021</ele>
        <time>2024-06-30T08:11:06.000Z</time>
      </trkpt>
      <trkpt lat="50.615117" lon="-1.961806">
        <ele>16.713857</ele>
        <time>2024-06-30T08:11:11.000Z</time>
      </trkpt>
      <trkpt lat="50.615027" lon="-1.961833">
        <ele>16.618626</ele>
        <time>2024-06-30T08:11:12.000Z</time>
      </trkpt>
      <trkpt lat="50.614443" lon="-1.961819">
        <ele>14.659803</ele>
        <time>2024-06-30T08:11:18.000Z</time>
      </trkpt>
      <trkpt lat="50.613737" lon="-1.961904">
        <ele>12.184558</ele>
        <time>2024-06-30T08:11:26.000Z</time>
      </trkpt>
      <trkpt lat="50.613331" lon="-1.962043">
        <ele>10.70616</ele>
        <time>2024-06-30T08:11:31.000Z</time>
      </trkpt>
      <trkpt lat="50.612928" lon="-1.96214">
        <ele>9.77749461265</ele>
        <time>2024-06-30T08:11:36.000Z</time>
      </trkpt>
      <trkpt lat="50.612746" lon="-1.962186">
        <ele>9.35760684725</ele>
        <time>2024-06-30T08:11:38.000Z</time>
      </trkpt>
      <trkpt lat="50.612508" lon="-1.962246">
        <ele>8.80855795783</ele>
        <time>2024-06-30T08:11:41.000Z</time>
      </trkpt>
      <trkpt lat="50.612658" lon="-1.959847">
        <ele>5.32399371828</ele>
        <time>2024-06-30T08:11:58.000Z</time>
      </trkpt>
      <trkpt lat="50.612663" lon="-1.959527">
        <ele>4.86129213002</ele>
        <time>2024-06-30T08:12:00.000Z</time>
      </trkpt>
    </trkseg>
  </trk>
</gpx>

<!--
Performance optimized by W3 Total Cache. Learn more: https://www.boldgrid.com/w3-total-cache/?utm_source=w3tc&utm_medium=footer_comment&utm_campaign=free_plugin

Page Caching using Disk: Enhanced{w3tc_pagecache_reject_reason} 

Served from: www.aquabike.world @ 2026-05-08 02:07:38 by W3 Total Cache
-->